<?xml version="1.0" encoding="UTF-8" standalone="no" ?>
<gpx xmlns="http://www.topografix.com/GPX/1/1" xmlns:xsi="http://www.w3.org/2001/XMLSchema-instance" xsi:schemaLocation="http://www.topografix.com/GPX/1/1 http://www.topografix.com/GPX/1/1/gpx.xsd" version="1.1" creator="VisuGPX - https://www.visugpx.com">
  <metadata>
    <name>TREK RCY GR34 2022 J5 Audierne - Du gite à l'embarcadère</name>
    <desc><![CDATA[Trajet de retour Embarcadère au gite (en soirée avec stop restau)
Trajet quasi à l'identique de celui du matin qui n'a pas été enregistré)]]></desc>
  </metadata>
  <trk>
    <name><![CDATA[SityTrail - TREK RCY GR34 2022 J5 Audierne - Du gite à l'embarcadère]]></name>
    <desc><![CDATA[Trajet de retour Embarcadère au gite (en soirée avec stop restau)
Trajet quasi à l'identique de celui du matin qui n'a pas été enregistré)]]></desc>
    <trkseg>
      <trkpt lat="48.00608" lon="-4.55562">
        <ele>4</ele>
        <time>2022-06-05T16:15:19.863Z</time>
      </trkpt>
      <trkpt lat="48.00611" lon="-4.55562">
        <ele>4</ele>
        <time>2022-06-05T16:16:12.442Z</time>
      </trkpt>
      <trkpt lat="48.00612" lon="-4.55563">
        <ele>4</ele>
        <time>2022-06-05T16:16:16.449Z</time>
      </trkpt>
      <trkpt lat="48.00612" lon="-4.55567">
        <ele>4</ele>
        <time>2022-06-05T16:16:21.454Z</time>
      </trkpt>
      <trkpt lat="48.00612" lon="-4.55573">
        <ele>4</ele>
        <time>2022-06-05T16:16:26.459Z</time>
      </trkpt>
      <trkpt lat="48.00613" lon="-4.55579">
        <ele>4</ele>
        <time>2022-06-05T16:16:30.443Z</time>
      </trkpt>
      <trkpt lat="48.00613" lon="-4.55585">
        <ele>4</ele>
        <time>2022-06-05T16:16:35.453Z</time>
      </trkpt>
      <trkpt lat="48.00613" lon="-4.55589">
        <ele>4</ele>
        <time>2022-06-05T16:16:39.447Z</time>
      </trkpt>
      <trkpt lat="48.00613" lon="-4.55596">
        <ele>4</ele>
        <time>2022-06-05T16:16:44.460Z</time>
      </trkpt>
      <trkpt lat="48.00613" lon="-4.55601">
        <ele>3</ele>
        <time>2022-06-05T16:16:48.453Z</time>
      </trkpt>
      <trkpt lat="48.00613" lon="-4.55606">
        <ele>3</ele>
        <time>2022-06-05T16:16:53.466Z</time>
      </trkpt>
      <trkpt lat="48.00612" lon="-4.55615">
        <ele>3</ele>
        <time>2022-06-05T16:16:58.465Z</time>
      </trkpt>
      <trkpt lat="48.00612" lon="-4.55622">
        <ele>3</ele>
        <time>2022-06-05T16:17:02.477Z</time>
      </trkpt>
      <trkpt lat="48.00612" lon="-4.55628">
        <ele>3</ele>
        <time>2022-06-05T16:17:07.497Z</time>
      </trkpt>
      <trkpt lat="48.00613" lon="-4.55635">
        <ele>3</ele>
        <time>2022-06-05T16:17:12.455Z</time>
      </trkpt>
      <trkpt lat="48.00614" lon="-4.55643">
        <ele>3</ele>
        <time>2022-06-05T16:17:17.472Z</time>
      </trkpt>
      <trkpt lat="48.00614" lon="-4.55648">
        <ele>3</ele>
        <time>2022-06-05T16:17:21.493Z</time>
      </trkpt>
      <trkpt lat="48.00614" lon="-4.55655">
        <ele>3</ele>
        <time>2022-06-05T16:17:26.481Z</time>
      </trkpt>
      <trkpt lat="48.00613" lon="-4.5566">
        <ele>3</ele>
        <time>2022-06-05T16:17:30.498Z</time>
      </trkpt>
      <trkpt lat="48.00613" lon="-4.55667">
        <ele>3</ele>
        <time>2022-06-05T16:17:35.480Z</time>
      </trkpt>
      <trkpt lat="48.00613" lon="-4.55673">
        <ele>3</ele>
        <time>2022-06-05T16:17:39.473Z</time>
      </trkpt>
      <trkpt lat="48.00613" lon="-4.55681">
        <ele>4</ele>
        <time>2022-06-05T16:17:44.479Z</time>
      </trkpt>
      <trkpt lat="48.00614" lon="-4.55687">
        <ele>4</ele>
        <time>2022-06-05T16:17:49.474Z</time>
      </trkpt>
      <trkpt lat="48.00613" lon="-4.55694">
        <ele>4</ele>
        <time>2022-06-05T16:17:53.490Z</time>
      </trkpt>
      <trkpt lat="48.00613" lon="-4.557">
        <ele>4</ele>
        <time>2022-06-05T16:17:58.503Z</time>
      </trkpt>
      <trkpt lat="48.00613" lon="-4.55707">
        <ele>4</ele>
        <time>2022-06-05T16:18:03.469Z</time>
      </trkpt>
      <trkpt lat="48.00613" lon="-4.55715">
        <ele>5</ele>
        <time>2022-06-05T16:18:08.450Z</time>
      </trkpt>
      <trkpt lat="48.00614" lon="-4.55721">
        <ele>5</ele>
        <time>2022-06-05T16:18:12.463Z</time>
      </trkpt>
      <trkpt lat="48.00617" lon="-4.55726">
        <ele>5</ele>
        <time>2022-06-05T16:18:17.466Z</time>
      </trkpt>
      <trkpt lat="48.00619" lon="-4.55728">
        <ele>5</ele>
        <time>2022-06-05T16:18:22.446Z</time>
      </trkpt>
      <trkpt lat="48.00621" lon="-4.5573">
        <ele>5</ele>
        <time>2022-06-05T16:18:26.456Z</time>
      </trkpt>
      <trkpt lat="48.00624" lon="-4.55733">
        <ele>5</ele>
        <time>2022-06-05T16:18:30.440Z</time>
      </trkpt>
      <trkpt lat="48.00627" lon="-4.55736">
        <ele>4</ele>
        <time>2022-06-05T16:18:34.466Z</time>
      </trkpt>
      <trkpt lat="48.0063" lon="-4.5574">
        <ele>4</ele>
        <time>2022-06-05T16:18:39.466Z</time>
      </trkpt>
      <trkpt lat="48.00634" lon="-4.5574">
        <ele>4</ele>
        <time>2022-06-05T16:18:44.468Z</time>
      </trkpt>
      <trkpt lat="48.00639" lon="-4.55741">
        <ele>4</ele>
        <time>2022-06-05T16:18:49.450Z</time>
      </trkpt>
      <trkpt lat="48.00642" lon="-4.55742">
        <ele>4</ele>
        <time>2022-06-05T16:18:53.489Z</time>
      </trkpt>
      <trkpt lat="48.00645" lon="-4.55742">
        <ele>4</ele>
        <time>2022-06-05T16:18:57.491Z</time>
      </trkpt>
      <trkpt lat="48.00649" lon="-4.55742">
        <ele>4</ele>
        <time>2022-06-05T16:19:02.468Z</time>
      </trkpt>
      <trkpt lat="48.00653" lon="-4.55742">
        <ele>4</ele>
        <time>2022-06-05T16:19:06.465Z</time>
      </trkpt>
      <trkpt lat="48.00656" lon="-4.55743">
        <ele>4</ele>
        <time>2022-06-05T16:19:10.476Z</time>
      </trkpt>
      <trkpt lat="48.00661" lon="-4.55743">
        <ele>4</ele>
        <time>2022-06-05T16:19:15.459Z</time>
      </trkpt>
      <trkpt lat="48.00666" lon="-4.55743">
        <ele>4</ele>
        <time>2022-06-05T16:19:20.464Z</time>
      </trkpt>
      <trkpt lat="48.00671" lon="-4.55744">
        <ele>4</ele>
        <time>2022-06-05T16:19:25.476Z</time>
      </trkpt>
      <trkpt lat="48.00676" lon="-4.55744">
        <ele>4</ele>
        <time>2022-06-05T16:19:30.459Z</time>
      </trkpt>
      <trkpt lat="48.0068" lon="-4.55744">
        <ele>4</ele>
        <time>2022-06-05T16:19:34.471Z</time>
      </trkpt>
      <trkpt lat="48.00685" lon="-4.55742">
        <ele>5</ele>
        <time>2022-06-05T16:19:38.480Z</time>
      </trkpt>
      <trkpt lat="48.0069" lon="-4.55742">
        <ele>5</ele>
        <time>2022-06-05T16:19:43.461Z</time>
      </trkpt>
      <trkpt lat="48.00695" lon="-4.55742">
        <ele>5</ele>
        <time>2022-06-05T16:19:47.471Z</time>
      </trkpt>
      <trkpt lat="48.00699" lon="-4.55742">
        <ele>5</ele>
        <time>2022-06-05T16:19:52.460Z</time>
      </trkpt>
      <trkpt lat="48.00704" lon="-4.55742">
        <ele>5</ele>
        <time>2022-06-05T16:19:57.474Z</time>
      </trkpt>
      <trkpt lat="48.00708" lon="-4.55743">
        <ele>5</ele>
        <time>2022-06-05T16:20:01.474Z</time>
      </trkpt>
      <trkpt lat="48.00713" lon="-4.55743">
        <ele>5</ele>
        <time>2022-06-05T16:20:06.443Z</time>
      </trkpt>
      <trkpt lat="48.00717" lon="-4.55744">
        <ele>5</ele>
        <time>2022-06-05T16:20:10.462Z</time>
      </trkpt>
      <trkpt lat="48.00722" lon="-4.55743">
        <ele>5</ele>
        <time>2022-06-05T16:20:14.470Z</time>
      </trkpt>
      <trkpt lat="48.00725" lon="-4.55743">
        <ele>5</ele>
        <time>2022-06-05T16:20:18.479Z</time>
      </trkpt>
      <trkpt lat="48.00731" lon="-4.55744">
        <ele>5</ele>
        <time>2022-06-05T16:20:23.480Z</time>
      </trkpt>
      <trkpt lat="48.00736" lon="-4.55744">
        <ele>6</ele>
        <time>2022-06-05T16:20:27.467Z</time>
      </trkpt>
      <trkpt lat="48.00741" lon="-4.55744">
        <ele>6</ele>
        <time>2022-06-05T16:20:31.470Z</time>
      </trkpt>
      <trkpt lat="48.00745" lon="-4.55743">
        <ele>6</ele>
        <time>2022-06-05T16:20:35.509Z</time>
      </trkpt>
      <trkpt lat="48.00751" lon="-4.55743">
        <ele>6</ele>
        <time>2022-06-05T16:20:40.509Z</time>
      </trkpt>
      <trkpt lat="48.00755" lon="-4.55741">
        <ele>6</ele>
        <time>2022-06-05T16:20:45.457Z</time>
      </trkpt>
      <trkpt lat="48.00759" lon="-4.55738">
        <ele>6</ele>
        <time>2022-06-05T16:20:49.473Z</time>
      </trkpt>
      <trkpt lat="48.00763" lon="-4.55734">
        <ele>5</ele>
        <time>2022-06-05T16:20:53.490Z</time>
      </trkpt>
      <trkpt lat="48.00767" lon="-4.55728">
        <ele>8</ele>
        <time>2022-06-05T16:20:58.476Z</time>
      </trkpt>
      <trkpt lat="48.00771" lon="-4.55722">
        <ele>8</ele>
        <time>2022-06-05T16:21:03.492Z</time>
      </trkpt>
      <trkpt lat="48.00775" lon="-4.55717">
        <ele>8</ele>
        <time>2022-06-05T16:21:07.498Z</time>
      </trkpt>
      <trkpt lat="48.00779" lon="-4.55713">
        <ele>8</ele>
        <time>2022-06-05T16:21:12.471Z</time>
      </trkpt>
      <trkpt lat="48.00784" lon="-4.55709">
        <ele>8</ele>
        <time>2022-06-05T16:21:17.464Z</time>
      </trkpt>
      <trkpt lat="48.00787" lon="-4.55706">
        <ele>6</ele>
        <time>2022-06-05T16:21:21.465Z</time>
      </trkpt>
      <trkpt lat="48.00791" lon="-4.55702">
        <ele>6</ele>
        <time>2022-06-05T16:21:26.463Z</time>
      </trkpt>
      <trkpt lat="48.00794" lon="-4.55698">
        <ele>6</ele>
        <time>2022-06-05T16:21:30.490Z</time>
      </trkpt>
      <trkpt lat="48.00797" lon="-4.55692">
        <ele>6</ele>
        <time>2022-06-05T16:21:35.488Z</time>
      </trkpt>
      <trkpt lat="48.00801" lon="-4.55685">
        <ele>6</ele>
        <time>2022-06-05T16:21:40.478Z</time>
      </trkpt>
      <trkpt lat="48.00805" lon="-4.55678">
        <ele>4</ele>
        <time>2022-06-05T16:21:45.467Z</time>
      </trkpt>
      <trkpt lat="48.00809" lon="-4.55673">
        <ele>4</ele>
        <time>2022-06-05T16:21:49.487Z</time>
      </trkpt>
      <trkpt lat="48.00812" lon="-4.55668">
        <ele>4</ele>
        <time>2022-06-05T16:21:54.486Z</time>
      </trkpt>
      <trkpt lat="48.00816" lon="-4.55661">
        <ele>4</ele>
        <time>2022-06-05T16:21:59.472Z</time>
      </trkpt>
      <trkpt lat="48.0082" lon="-4.55654">
        <ele>7</ele>
        <time>2022-06-05T16:22:04.473Z</time>
      </trkpt>
      <trkpt lat="48.00822" lon="-4.55648">
        <ele>6</ele>
        <time>2022-06-05T16:22:08.486Z</time>
      </trkpt>
      <trkpt lat="48.00825" lon="-4.55642">
        <ele>6</ele>
        <time>2022-06-05T16:22:13.465Z</time>
      </trkpt>
      <trkpt lat="48.00829" lon="-4.55637">
        <ele>6</ele>
        <time>2022-06-05T16:22:17.484Z</time>
      </trkpt>
      <trkpt lat="48.00833" lon="-4.55634">
        <ele>6</ele>
        <time>2022-06-05T16:22:21.492Z</time>
      </trkpt>
      <trkpt lat="48.00837" lon="-4.55631">
        <ele>6</ele>
        <time>2022-06-05T16:22:25.495Z</time>
      </trkpt>
      <trkpt lat="48.00842" lon="-4.55627">
        <ele>6</ele>
        <time>2022-06-05T16:22:30.472Z</time>
      </trkpt>
      <trkpt lat="48.00847" lon="-4.55625">
        <ele>6</ele>
        <time>2022-06-05T16:22:35.473Z</time>
      </trkpt>
      <trkpt lat="48.0085" lon="-4.55622">
        <ele>6</ele>
        <time>2022-06-05T16:22:39.479Z</time>
      </trkpt>
      <trkpt lat="48.00854" lon="-4.55617">
        <ele>6</ele>
        <time>2022-06-05T16:22:44.465Z</time>
      </trkpt>
      <trkpt lat="48.00858" lon="-4.55611">
        <ele>6</ele>
        <time>2022-06-05T16:22:49.483Z</time>
      </trkpt>
      <trkpt lat="48.00861" lon="-4.55609">
        <ele>6</ele>
        <time>2022-06-05T16:22:53.490Z</time>
      </trkpt>
      <trkpt lat="48.00864" lon="-4.55606">
        <ele>6</ele>
        <time>2022-06-05T16:22:58.477Z</time>
      </trkpt>
      <trkpt lat="48.00869" lon="-4.55602">
        <ele>6</ele>
        <time>2022-06-05T16:23:03.477Z</time>
      </trkpt>
      <trkpt lat="48.00873" lon="-4.55599">
        <ele>6</ele>
        <time>2022-06-05T16:23:07.485Z</time>
      </trkpt>
      <trkpt lat="48.00879" lon="-4.55597">
        <ele>5</ele>
        <time>2022-06-05T16:23:12.461Z</time>
      </trkpt>
      <trkpt lat="48.00884" lon="-4.55597">
        <ele>5</ele>
        <time>2022-06-05T16:23:17.443Z</time>
      </trkpt>
      <trkpt lat="48.00888" lon="-4.55599">
        <ele>7</ele>
        <time>2022-06-05T16:23:21.473Z</time>
      </trkpt>
      <trkpt lat="48.00893" lon="-4.55601">
        <ele>7</ele>
        <time>2022-06-05T16:23:25.475Z</time>
      </trkpt>
      <trkpt lat="48.00898" lon="-4.55605">
        <ele>7</ele>
        <time>2022-06-05T16:23:29.474Z</time>
      </trkpt>
      <trkpt lat="48.00903" lon="-4.55612">
        <ele>7</ele>
        <time>2022-06-05T16:23:34.453Z</time>
      </trkpt>
      <trkpt lat="48.00905" lon="-4.55618">
        <ele>6</ele>
        <time>2022-06-05T16:23:38.490Z</time>
      </trkpt>
      <trkpt lat="48.00909" lon="-4.55623">
        <ele>6</ele>
        <time>2022-06-05T16:23:43.450Z</time>
      </trkpt>
      <trkpt lat="48.00915" lon="-4.55628">
        <ele>7</ele>
        <time>2022-06-05T16:23:48.441Z</time>
      </trkpt>
      <trkpt lat="48.00918" lon="-4.5563">
        <ele>7</ele>
        <time>2022-06-05T16:23:52.490Z</time>
      </trkpt>
      <trkpt lat="48.00923" lon="-4.55633">
        <ele>7</ele>
        <time>2022-06-05T16:23:57.471Z</time>
      </trkpt>
      <trkpt lat="48.00928" lon="-4.55636">
        <ele>7</ele>
        <time>2022-06-05T16:24:02.476Z</time>
      </trkpt>
      <trkpt lat="48.00934" lon="-4.55636">
        <ele>7</ele>
        <time>2022-06-05T16:24:07.491Z</time>
      </trkpt>
      <trkpt lat="48.0094" lon="-4.55634">
        <ele>7</ele>
        <time>2022-06-05T16:24:12.467Z</time>
      </trkpt>
      <trkpt lat="48.00945" lon="-4.55632">
        <ele>7</ele>
        <time>2022-06-05T16:24:17.491Z</time>
      </trkpt>
      <trkpt lat="48.0095" lon="-4.5563">
        <ele>7</ele>
        <time>2022-06-05T16:24:21.502Z</time>
      </trkpt>
      <trkpt lat="48.00956" lon="-4.55629">
        <ele>7</ele>
        <time>2022-06-05T16:24:26.467Z</time>
      </trkpt>
      <trkpt lat="48.0096" lon="-4.55627">
        <ele>8</ele>
        <time>2022-06-05T16:24:30.484Z</time>
      </trkpt>
      <trkpt lat="48.00965" lon="-4.55625">
        <ele>8</ele>
        <time>2022-06-05T16:24:35.474Z</time>
      </trkpt>
      <trkpt lat="48.0097" lon="-4.55624">
        <ele>7</ele>
        <time>2022-06-05T16:24:40.484Z</time>
      </trkpt>
      <trkpt lat="48.00973" lon="-4.5562">
        <ele>7</ele>
        <time>2022-06-05T16:24:44.472Z</time>
      </trkpt>
      <trkpt lat="48.00976" lon="-4.55613">
        <ele>7</ele>
        <time>2022-06-05T16:24:49.469Z</time>
      </trkpt>
      <trkpt lat="48.0098" lon="-4.55608">
        <ele>7</ele>
        <time>2022-06-05T16:24:54.471Z</time>
      </trkpt>
      <trkpt lat="48.00983" lon="-4.55601">
        <ele>7</ele>
        <time>2022-06-05T16:24:59.498Z</time>
      </trkpt>
      <trkpt lat="48.00986" lon="-4.55594">
        <ele>8</ele>
        <time>2022-06-05T16:25:04.492Z</time>
      </trkpt>
      <trkpt lat="48.00988" lon="-4.5559">
        <ele>8</ele>
        <time>2022-06-05T16:25:08.503Z</time>
      </trkpt>
      <trkpt lat="48.00993" lon="-4.55584">
        <ele>8</ele>
        <time>2022-06-05T16:25:13.470Z</time>
      </trkpt>
      <trkpt lat="48.01" lon="-4.55585">
        <ele>8</ele>
        <time>2022-06-05T16:25:18.460Z</time>
      </trkpt>
      <trkpt lat="48.01003" lon="-4.55583">
        <ele>8</ele>
        <time>2022-06-05T16:25:22.474Z</time>
      </trkpt>
      <trkpt lat="48.01004" lon="-4.55582">
        <ele>8</ele>
        <time>2022-06-05T16:25:26.471Z</time>
      </trkpt>
      <trkpt lat="48.01008" lon="-4.55578">
        <ele>8</ele>
        <time>2022-06-05T16:25:31.474Z</time>
      </trkpt>
      <trkpt lat="48.01011" lon="-4.55573">
        <ele>8</ele>
        <time>2022-06-05T16:25:36.459Z</time>
      </trkpt>
      <trkpt lat="48.01013" lon="-4.55566">
        <ele>7</ele>
        <time>2022-06-05T16:25:40.469Z</time>
      </trkpt>
      <trkpt lat="48.01015" lon="-4.5556">
        <ele>11</ele>
        <time>2022-06-05T16:25:44.473Z</time>
      </trkpt>
      <trkpt lat="48.01018" lon="-4.55555">
        <ele>11</ele>
        <time>2022-06-05T16:25:49.495Z</time>
      </trkpt>
      <trkpt lat="48.01022" lon="-4.55548">
        <ele>11</ele>
        <time>2022-06-05T16:25:54.443Z</time>
      </trkpt>
      <trkpt lat="48.01024" lon="-4.55541">
        <ele>11</ele>
        <time>2022-06-05T16:25:58.465Z</time>
      </trkpt>
      <trkpt lat="48.01026" lon="-4.55534">
        <ele>11</ele>
        <time>2022-06-05T16:26:02.494Z</time>
      </trkpt>
      <trkpt lat="48.01028" lon="-4.55525">
        <ele>11</ele>
        <time>2022-06-05T16:26:07.479Z</time>
      </trkpt>
      <trkpt lat="48.01028" lon="-4.55517">
        <ele>11</ele>
        <time>2022-06-05T16:26:12.470Z</time>
      </trkpt>
      <trkpt lat="48.01028" lon="-4.55508">
        <ele>11</ele>
        <time>2022-06-05T16:26:17.477Z</time>
      </trkpt>
      <trkpt lat="48.01028" lon="-4.555">
        <ele>11</ele>
        <time>2022-06-05T16:26:22.467Z</time>
      </trkpt>
      <trkpt lat="48.01029" lon="-4.55493">
        <ele>11</ele>
        <time>2022-06-05T16:26:26.491Z</time>
      </trkpt>
      <trkpt lat="48.01029" lon="-4.55487">
        <ele>11</ele>
        <time>2022-06-05T16:26:30.505Z</time>
      </trkpt>
      <trkpt lat="48.01029" lon="-4.55479">
        <ele>10</ele>
        <time>2022-06-05T16:26:35.463Z</time>
      </trkpt>
      <trkpt lat="48.01029" lon="-4.55472">
        <ele>10</ele>
        <time>2022-06-05T16:26:39.487Z</time>
      </trkpt>
      <trkpt lat="48.01029" lon="-4.55466">
        <ele>10</ele>
        <time>2022-06-05T16:26:43.501Z</time>
      </trkpt>
      <trkpt lat="48.01029" lon="-4.55458">
        <ele>7</ele>
        <time>2022-06-05T16:26:48.475Z</time>
      </trkpt>
      <trkpt lat="48.0103" lon="-4.5545">
        <ele>7</ele>
        <time>2022-06-05T16:26:53.457Z</time>
      </trkpt>
      <trkpt lat="48.01031" lon="-4.55442">
        <ele>7</ele>
        <time>2022-06-05T16:26:58.470Z</time>
      </trkpt>
      <trkpt lat="48.01032" lon="-4.55435">
        <ele>7</ele>
        <time>2022-06-05T16:27:02.489Z</time>
      </trkpt>
      <trkpt lat="48.01033" lon="-4.55427">
        <ele>4</ele>
        <time>2022-06-05T16:27:07.485Z</time>
      </trkpt>
      <trkpt lat="48.01035" lon="-4.5542">
        <ele>4</ele>
        <time>2022-06-05T16:27:12.458Z</time>
      </trkpt>
      <trkpt lat="48.01037" lon="-4.55412">
        <ele>4</ele>
        <time>2022-06-05T16:27:17.477Z</time>
      </trkpt>
      <trkpt lat="48.01038" lon="-4.55405">
        <ele>4</ele>
        <time>2022-06-05T16:27:21.497Z</time>
      </trkpt>
      <trkpt lat="48.0104" lon="-4.55399">
        <ele>3</ele>
        <time>2022-06-05T16:27:25.490Z</time>
      </trkpt>
      <trkpt lat="48.01042" lon="-4.55391">
        <ele>9</ele>
        <time>2022-06-05T16:27:30.463Z</time>
      </trkpt>
      <trkpt lat="48.01045" lon="-4.55383">
        <ele>9</ele>
        <time>2022-06-05T16:27:35.465Z</time>
      </trkpt>
      <trkpt lat="48.01048" lon="-4.55377">
        <ele>9</ele>
        <time>2022-06-05T16:27:40.485Z</time>
      </trkpt>
      <trkpt lat="48.01051" lon="-4.55369">
        <ele>9</ele>
        <time>2022-06-05T16:27:45.442Z</time>
      </trkpt>
      <trkpt lat="48.01054" lon="-4.55362">
        <ele>9</ele>
        <time>2022-06-05T16:27:49.494Z</time>
      </trkpt>
      <trkpt lat="48.01056" lon="-4.55356">
        <ele>9</ele>
        <time>2022-06-05T16:27:54.472Z</time>
      </trkpt>
      <trkpt lat="48.01059" lon="-4.55347">
        <ele>8</ele>
        <time>2022-06-05T16:27:59.463Z</time>
      </trkpt>
      <trkpt lat="48.01061" lon="-4.55341">
        <ele>8</ele>
        <time>2022-06-05T16:28:03.467Z</time>
      </trkpt>
      <trkpt lat="48.01063" lon="-4.55334">
        <ele>8</ele>
        <time>2022-06-05T16:28:07.488Z</time>
      </trkpt>
      <trkpt lat="48.01065" lon="-4.55327">
        <ele>8</ele>
        <time>2022-06-05T16:28:12.481Z</time>
      </trkpt>
      <trkpt lat="48.01068" lon="-4.55319">
        <ele>9</ele>
        <time>2022-06-05T16:28:17.479Z</time>
      </trkpt>
      <trkpt lat="48.0107" lon="-4.55311">
        <ele>13</ele>
        <time>2022-06-05T16:28:22.480Z</time>
      </trkpt>
      <trkpt lat="48.01073" lon="-4.55304">
        <ele>13</ele>
        <time>2022-06-05T16:28:27.469Z</time>
      </trkpt>
      <trkpt lat="48.01076" lon="-4.55297">
        <ele>13</ele>
        <time>2022-06-05T16:28:31.484Z</time>
      </trkpt>
      <trkpt lat="48.01079" lon="-4.55292">
        <ele>13</ele>
        <time>2022-06-05T16:28:35.481Z</time>
      </trkpt>
      <trkpt lat="48.01082" lon="-4.55284">
        <ele>13</ele>
        <time>2022-06-05T16:28:40.449Z</time>
      </trkpt>
      <trkpt lat="48.01086" lon="-4.55278">
        <ele>13</ele>
        <time>2022-06-05T16:28:45.449Z</time>
      </trkpt>
      <trkpt lat="48.01089" lon="-4.55273">
        <ele>13</ele>
        <time>2022-06-05T16:28:49.452Z</time>
      </trkpt>
      <trkpt lat="48.01091" lon="-4.55267">
        <ele>13</ele>
        <time>2022-06-05T16:28:53.513Z</time>
      </trkpt>
      <trkpt lat="48.01094" lon="-4.5526">
        <ele>12</ele>
        <time>2022-06-05T16:28:58.474Z</time>
      </trkpt>
      <trkpt lat="48.01099" lon="-4.55255">
        <ele>18</ele>
        <time>2022-06-05T16:29:03.451Z</time>
      </trkpt>
      <trkpt lat="48.01103" lon="-4.5525">
        <ele>18</ele>
        <time>2022-06-05T16:29:07.479Z</time>
      </trkpt>
      <trkpt lat="48.01107" lon="-4.55245">
        <ele>18</ele>
        <time>2022-06-05T16:29:12.472Z</time>
      </trkpt>
      <trkpt lat="48.01112" lon="-4.5524">
        <ele>18</ele>
        <time>2022-06-05T16:29:16.468Z</time>
      </trkpt>
      <trkpt lat="48.01116" lon="-4.55235">
        <ele>15</ele>
        <time>2022-06-05T16:29:21.473Z</time>
      </trkpt>
      <trkpt lat="48.01119" lon="-4.5523">
        <ele>15</ele>
        <time>2022-06-05T16:29:25.478Z</time>
      </trkpt>
      <trkpt lat="48.01123" lon="-4.55224">
        <ele>15</ele>
        <time>2022-06-05T16:29:30.486Z</time>
      </trkpt>
      <trkpt lat="48.01128" lon="-4.55219">
        <ele>18</ele>
        <time>2022-06-05T16:29:35.468Z</time>
      </trkpt>
      <trkpt lat="48.01131" lon="-4.55215">
        <ele>18</ele>
        <time>2022-06-05T16:29:39.470Z</time>
      </trkpt>
      <trkpt lat="48.01134" lon="-4.5521">
        <ele>18</ele>
        <time>2022-06-05T16:29:43.462Z</time>
      </trkpt>
      <trkpt lat="48.01137" lon="-4.55203">
        <ele>15</ele>
        <time>2022-06-05T16:29:48.472Z</time>
      </trkpt>
      <trkpt lat="48.0114" lon="-4.55196">
        <ele>15</ele>
        <time>2022-06-05T16:29:53.461Z</time>
      </trkpt>
      <trkpt lat="48.01143" lon="-4.55189">
        <ele>15</ele>
        <time>2022-06-05T16:29:58.465Z</time>
      </trkpt>
      <trkpt lat="48.01147" lon="-4.55182">
        <ele>15</ele>
        <time>2022-06-05T16:30:03.447Z</time>
      </trkpt>
      <trkpt lat="48.0115" lon="-4.55176">
        <ele>11</ele>
        <time>2022-06-05T16:30:07.470Z</time>
      </trkpt>
      <trkpt lat="48.01155" lon="-4.5517">
        <ele>14</ele>
        <time>2022-06-05T16:30:12.473Z</time>
      </trkpt>
      <trkpt lat="48.01161" lon="-4.55169">
        <ele>14</ele>
        <time>2022-06-05T16:30:17.469Z</time>
      </trkpt>
      <trkpt lat="48.01167" lon="-4.55173">
        <ele>14</ele>
        <time>2022-06-05T16:30:22.456Z</time>
      </trkpt>
      <trkpt lat="48.01171" lon="-4.55174">
        <ele>14</ele>
        <time>2022-06-05T16:30:26.470Z</time>
      </trkpt>
      <trkpt lat="48.01173" lon="-4.55168">
        <ele>14</ele>
        <time>2022-06-05T16:30:31.473Z</time>
      </trkpt>
      <trkpt lat="48.01175" lon="-4.5516">
        <ele>14</ele>
        <time>2022-06-05T16:30:36.473Z</time>
      </trkpt>
      <trkpt lat="48.01177" lon="-4.55153">
        <ele>12</ele>
        <time>2022-06-05T16:30:41.467Z</time>
      </trkpt>
      <trkpt lat="48.01178" lon="-4.55145">
        <ele>12</ele>
        <time>2022-06-05T16:30:45.489Z</time>
      </trkpt>
      <trkpt lat="48.01179" lon="-4.55137">
        <ele>12</ele>
        <time>2022-06-05T16:30:50.432Z</time>
      </trkpt>
      <trkpt lat="48.01179" lon="-4.5513">
        <ele>12</ele>
        <time>2022-06-05T16:30:54.465Z</time>
      </trkpt>
      <trkpt lat="48.0118" lon="-4.55124">
        <ele>10</ele>
        <time>2022-06-05T16:30:58.479Z</time>
      </trkpt>
      <trkpt lat="48.01181" lon="-4.55116">
        <ele>11</ele>
        <time>2022-06-05T16:31:03.483Z</time>
      </trkpt>
      <trkpt lat="48.01182" lon="-4.55107">
        <ele>11</ele>
        <time>2022-06-05T16:31:08.468Z</time>
      </trkpt>
      <trkpt lat="48.01182" lon="-4.55099">
        <ele>11</ele>
        <time>2022-06-05T16:31:12.461Z</time>
      </trkpt>
      <trkpt lat="48.01183" lon="-4.55092">
        <ele>9</ele>
        <time>2022-06-05T16:31:17.473Z</time>
      </trkpt>
      <trkpt lat="48.01184" lon="-4.55083">
        <ele>9</ele>
        <time>2022-06-05T16:31:22.476Z</time>
      </trkpt>
      <trkpt lat="48.01185" lon="-4.55076">
        <ele>9</ele>
        <time>2022-06-05T16:31:27.472Z</time>
      </trkpt>
      <trkpt lat="48.01186" lon="-4.55069">
        <ele>8</ele>
        <time>2022-06-05T16:31:31.473Z</time>
      </trkpt>
      <trkpt lat="48.01187" lon="-4.55061">
        <ele>8</ele>
        <time>2022-06-05T16:31:36.469Z</time>
      </trkpt>
      <trkpt lat="48.01188" lon="-4.55055">
        <ele>8</ele>
        <time>2022-06-05T16:31:40.463Z</time>
      </trkpt>
      <trkpt lat="48.01189" lon="-4.55047">
        <ele>8</ele>
        <time>2022-06-05T16:31:45.461Z</time>
      </trkpt>
      <trkpt lat="48.0119" lon="-4.55041">
        <ele>8</ele>
        <time>2022-06-05T16:31:49.474Z</time>
      </trkpt>
      <trkpt lat="48.01192" lon="-4.55032">
        <ele>8</ele>
        <time>2022-06-05T16:31:53.485Z</time>
      </trkpt>
      <trkpt lat="48.01194" lon="-4.55023">
        <ele>8</ele>
        <time>2022-06-05T16:31:58.491Z</time>
      </trkpt>
      <trkpt lat="48.01197" lon="-4.55014">
        <ele>8</ele>
        <time>2022-06-05T16:32:03.460Z</time>
      </trkpt>
      <trkpt lat="48.01198" lon="-4.55008">
        <ele>7</ele>
        <time>2022-06-05T16:32:07.461Z</time>
      </trkpt>
      <trkpt lat="48.012" lon="-4.55002">
        <ele>7</ele>
        <time>2022-06-05T16:32:11.464Z</time>
      </trkpt>
      <trkpt lat="48.01202" lon="-4.54995">
        <ele>7</ele>
        <time>2022-06-05T16:32:15.468Z</time>
      </trkpt>
      <trkpt lat="48.01204" lon="-4.5499">
        <ele>7</ele>
        <time>2022-06-05T16:32:19.472Z</time>
      </trkpt>
      <trkpt lat="48.01207" lon="-4.54981">
        <ele>6</ele>
        <time>2022-06-05T16:32:24.431Z</time>
      </trkpt>
      <trkpt lat="48.0121" lon="-4.54974">
        <ele>7</ele>
        <time>2022-06-05T16:32:28.462Z</time>
      </trkpt>
      <trkpt lat="48.01214" lon="-4.54967">
        <ele>7</ele>
        <time>2022-06-05T16:32:33.456Z</time>
      </trkpt>
      <trkpt lat="48.01217" lon="-4.54961">
        <ele>7</ele>
        <time>2022-06-05T16:32:37.483Z</time>
      </trkpt>
      <trkpt lat="48.01219" lon="-4.54954">
        <ele>6</ele>
        <time>2022-06-05T16:32:41.473Z</time>
      </trkpt>
      <trkpt lat="48.01222" lon="-4.54949">
        <ele>6</ele>
        <time>2022-06-05T16:32:45.507Z</time>
      </trkpt>
      <trkpt lat="48.01226" lon="-4.54941">
        <ele>6</ele>
        <time>2022-06-05T16:32:50.486Z</time>
      </trkpt>
      <trkpt lat="48.01229" lon="-4.54935">
        <ele>6</ele>
        <time>2022-06-05T16:32:55.478Z</time>
      </trkpt>
      <trkpt lat="48.01231" lon="-4.54929">
        <ele>7</ele>
        <time>2022-06-05T16:32:59.472Z</time>
      </trkpt>
      <trkpt lat="48.01234" lon="-4.54921">
        <ele>7</ele>
        <time>2022-06-05T16:33:04.466Z</time>
      </trkpt>
      <trkpt lat="48.01236" lon="-4.54913">
        <ele>7</ele>
        <time>2022-06-05T16:33:09.452Z</time>
      </trkpt>
      <trkpt lat="48.01237" lon="-4.54907">
        <ele>7</ele>
        <time>2022-06-05T16:33:13.469Z</time>
      </trkpt>
      <trkpt lat="48.01238" lon="-4.54899">
        <ele>9</ele>
        <time>2022-06-05T16:33:18.456Z</time>
      </trkpt>
      <trkpt lat="48.0124" lon="-4.54892">
        <ele>9</ele>
        <time>2022-06-05T16:33:22.487Z</time>
      </trkpt>
      <trkpt lat="48.01242" lon="-4.54884">
        <ele>9</ele>
        <time>2022-06-05T16:33:27.496Z</time>
      </trkpt>
      <trkpt lat="48.01243" lon="-4.54875">
        <ele>9</ele>
        <time>2022-06-05T16:33:32.492Z</time>
      </trkpt>
      <trkpt lat="48.01244" lon="-4.54867">
        <ele>11</ele>
        <time>2022-06-05T16:33:37.469Z</time>
      </trkpt>
      <trkpt lat="48.01245" lon="-4.54858">
        <ele>11</ele>
        <time>2022-06-05T16:33:42.464Z</time>
      </trkpt>
      <trkpt lat="48.01245" lon="-4.54849">
        <ele>11</ele>
        <time>2022-06-05T16:33:47.489Z</time>
      </trkpt>
      <trkpt lat="48.01245" lon="-4.54843">
        <ele>13</ele>
        <time>2022-06-05T16:33:51.480Z</time>
      </trkpt>
      <trkpt lat="48.01246" lon="-4.54835">
        <ele>13</ele>
        <time>2022-06-05T16:33:56.465Z</time>
      </trkpt>
      <trkpt lat="48.01246" lon="-4.54829">
        <ele>13</ele>
        <time>2022-06-05T16:34:00.490Z</time>
      </trkpt>
      <trkpt lat="48.01246" lon="-4.54821">
        <ele>13</ele>
        <time>2022-06-05T16:34:05.476Z</time>
      </trkpt>
      <trkpt lat="48.01246" lon="-4.54812">
        <ele>14</ele>
        <time>2022-06-05T16:34:10.468Z</time>
      </trkpt>
      <trkpt lat="48.01246" lon="-4.54806">
        <ele>14</ele>
        <time>2022-06-05T16:34:14.492Z</time>
      </trkpt>
      <trkpt lat="48.01247" lon="-4.54798">
        <ele>14</ele>
        <time>2022-06-05T16:34:19.478Z</time>
      </trkpt>
      <trkpt lat="48.01247" lon="-4.5479">
        <ele>15</ele>
        <time>2022-06-05T16:34:24.481Z</time>
      </trkpt>
      <trkpt lat="48.01247" lon="-4.5478">
        <ele>15</ele>
        <time>2022-06-05T16:34:29.484Z</time>
      </trkpt>
      <trkpt lat="48.01247" lon="-4.54773">
        <ele>15</ele>
        <time>2022-06-05T16:34:33.477Z</time>
      </trkpt>
      <trkpt lat="48.01248" lon="-4.54765">
        <ele>15</ele>
        <time>2022-06-05T16:34:38.466Z</time>
      </trkpt>
      <trkpt lat="48.01248" lon="-4.54757">
        <ele>15</ele>
        <time>2022-06-05T16:34:43.469Z</time>
      </trkpt>
      <trkpt lat="48.01248" lon="-4.5475">
        <ele>15</ele>
        <time>2022-06-05T16:34:47.507Z</time>
      </trkpt>
      <trkpt lat="48.01248" lon="-4.54743">
        <ele>15</ele>
        <time>2022-06-05T16:34:52.483Z</time>
      </trkpt>
      <trkpt lat="48.01248" lon="-4.54739">
        <ele>15</ele>
        <time>2022-06-05T16:34:57.462Z</time>
      </trkpt>
      <trkpt lat="48.01247" lon="-4.54733">
        <ele>15</ele>
        <time>2022-06-05T16:35:01.481Z</time>
      </trkpt>
      <trkpt lat="48.01247" lon="-4.54724">
        <ele>15</ele>
        <time>2022-06-05T16:35:05.510Z</time>
      </trkpt>
      <trkpt lat="48.01248" lon="-4.54715">
        <ele>15</ele>
        <time>2022-06-05T16:35:10.474Z</time>
      </trkpt>
      <trkpt lat="48.01247" lon="-4.54707">
        <ele>16</ele>
        <time>2022-06-05T16:35:15.466Z</time>
      </trkpt>
      <trkpt lat="48.01247" lon="-4.547">
        <ele>16</ele>
        <time>2022-06-05T16:35:20.458Z</time>
      </trkpt>
      <trkpt lat="48.01247" lon="-4.54693">
        <ele>16</ele>
        <time>2022-06-05T16:35:24.479Z</time>
      </trkpt>
      <trkpt lat="48.01246" lon="-4.54684">
        <ele>16</ele>
        <time>2022-06-05T16:35:29.469Z</time>
      </trkpt>
      <trkpt lat="48.01245" lon="-4.54675">
        <ele>17</ele>
        <time>2022-06-05T16:35:34.452Z</time>
      </trkpt>
      <trkpt lat="48.01244" lon="-4.54667">
        <ele>17</ele>
        <time>2022-06-05T16:35:38.486Z</time>
      </trkpt>
      <trkpt lat="48.01242" lon="-4.54658">
        <ele>17</ele>
        <time>2022-06-05T16:35:43.454Z</time>
      </trkpt>
      <trkpt lat="48.01242" lon="-4.5465">
        <ele>18</ele>
        <time>2022-06-05T16:35:48.469Z</time>
      </trkpt>
      <trkpt lat="48.01241" lon="-4.54643">
        <ele>18</ele>
        <time>2022-06-05T16:35:52.489Z</time>
      </trkpt>
      <trkpt lat="48.01239" lon="-4.54633">
        <ele>18</ele>
        <time>2022-06-05T16:35:57.501Z</time>
      </trkpt>
      <trkpt lat="48.01238" lon="-4.54625">
        <ele>18</ele>
        <time>2022-06-05T16:36:01.496Z</time>
      </trkpt>
      <trkpt lat="48.01237" lon="-4.54616">
        <ele>19</ele>
        <time>2022-06-05T16:36:06.482Z</time>
      </trkpt>
      <trkpt lat="48.01236" lon="-4.54608">
        <ele>16</ele>
        <time>2022-06-05T16:36:11.482Z</time>
      </trkpt>
      <trkpt lat="48.01234" lon="-4.546">
        <ele>16</ele>
        <time>2022-06-05T16:36:16.458Z</time>
      </trkpt>
      <trkpt lat="48.01233" lon="-4.54593">
        <ele>15</ele>
        <time>2022-06-05T16:36:21.468Z</time>
      </trkpt>
      <trkpt lat="48.01232" lon="-4.54585">
        <ele>15</ele>
        <time>2022-06-05T16:36:26.450Z</time>
      </trkpt>
      <trkpt lat="48.0123" lon="-4.54578">
        <ele>15</ele>
        <time>2022-06-05T16:36:30.477Z</time>
      </trkpt>
      <trkpt lat="48.01229" lon="-4.54569">
        <ele>14</ele>
        <time>2022-06-05T16:36:35.481Z</time>
      </trkpt>
      <trkpt lat="48.01228" lon="-4.5456">
        <ele>14</ele>
        <time>2022-06-05T16:36:40.484Z</time>
      </trkpt>
      <trkpt lat="48.01226" lon="-4.5455">
        <ele>14</ele>
        <time>2022-06-05T16:36:45.464Z</time>
      </trkpt>
      <trkpt lat="48.01224" lon="-4.54542">
        <ele>14</ele>
        <time>2022-06-05T16:36:50.485Z</time>
      </trkpt>
      <trkpt lat="48.01223" lon="-4.54533">
        <ele>14</ele>
        <time>2022-06-05T16:36:55.471Z</time>
      </trkpt>
      <trkpt lat="48.01221" lon="-4.54524">
        <ele>14</ele>
        <time>2022-06-05T16:37:00.482Z</time>
      </trkpt>
      <trkpt lat="48.01219" lon="-4.54514">
        <ele>14</ele>
        <time>2022-06-05T16:37:05.509Z</time>
      </trkpt>
      <trkpt lat="48.01217" lon="-4.54505">
        <ele>14</ele>
        <time>2022-06-05T16:37:10.481Z</time>
      </trkpt>
      <trkpt lat="48.01215" lon="-4.54497">
        <ele>14</ele>
        <time>2022-06-05T16:37:15.498Z</time>
      </trkpt>
      <trkpt lat="48.01214" lon="-4.54489">
        <ele>14</ele>
        <time>2022-06-05T16:37:20.465Z</time>
      </trkpt>
      <trkpt lat="48.01213" lon="-4.54482">
        <ele>15</ele>
        <time>2022-06-05T16:37:24.479Z</time>
      </trkpt>
      <trkpt lat="48.01213" lon="-4.54475">
        <ele>15</ele>
        <time>2022-06-05T16:37:28.484Z</time>
      </trkpt>
      <trkpt lat="48.01212" lon="-4.54466">
        <ele>15</ele>
        <time>2022-06-05T16:37:33.498Z</time>
      </trkpt>
      <trkpt lat="48.0121" lon="-4.54458">
        <ele>15</ele>
        <time>2022-06-05T16:37:38.474Z</time>
      </trkpt>
      <trkpt lat="48.01208" lon="-4.54449">
        <ele>12</ele>
        <time>2022-06-05T16:37:43.467Z</time>
      </trkpt>
      <trkpt lat="48.01207" lon="-4.54441">
        <ele>12</ele>
        <time>2022-06-05T16:37:48.471Z</time>
      </trkpt>
      <trkpt lat="48.01205" lon="-4.54432">
        <ele>12</ele>
        <time>2022-06-05T16:37:53.451Z</time>
      </trkpt>
      <trkpt lat="48.01205" lon="-4.54425">
        <ele>13</ele>
        <time>2022-06-05T16:37:57.471Z</time>
      </trkpt>
      <trkpt lat="48.01203" lon="-4.54418">
        <ele>13</ele>
        <time>2022-06-05T16:38:01.495Z</time>
      </trkpt>
      <trkpt lat="48.01202" lon="-4.54409">
        <ele>13</ele>
        <time>2022-06-05T16:38:06.462Z</time>
      </trkpt>
      <trkpt lat="48.012" lon="-4.54403">
        <ele>13</ele>
        <time>2022-06-05T16:38:10.495Z</time>
      </trkpt>
      <trkpt lat="48.01199" lon="-4.54397">
        <ele>14</ele>
        <time>2022-06-05T16:38:14.480Z</time>
      </trkpt>
      <trkpt lat="48.01198" lon="-4.54389">
        <ele>14</ele>
        <time>2022-06-05T16:38:19.484Z</time>
      </trkpt>
      <trkpt lat="48.01197" lon="-4.54384">
        <ele>14</ele>
        <time>2022-06-05T16:38:23.508Z</time>
      </trkpt>
      <trkpt lat="48.01196" lon="-4.54376">
        <ele>14</ele>
        <time>2022-06-05T16:38:28.500Z</time>
      </trkpt>
      <trkpt lat="48.01194" lon="-4.54368">
        <ele>14</ele>
        <time>2022-06-05T16:38:33.473Z</time>
      </trkpt>
      <trkpt lat="48.01193" lon="-4.54359">
        <ele>14</ele>
        <time>2022-06-05T16:38:38.473Z</time>
      </trkpt>
      <trkpt lat="48.01192" lon="-4.54352">
        <ele>14</ele>
        <time>2022-06-05T16:38:43.467Z</time>
      </trkpt>
      <trkpt lat="48.0119" lon="-4.54343">
        <ele>16</ele>
        <time>2022-06-05T16:38:48.460Z</time>
      </trkpt>
      <trkpt lat="48.01188" lon="-4.54335">
        <ele>16</ele>
        <time>2022-06-05T16:38:53.456Z</time>
      </trkpt>
      <trkpt lat="48.01187" lon="-4.54328">
        <ele>16</ele>
        <time>2022-06-05T16:38:57.486Z</time>
      </trkpt>
      <trkpt lat="48.01187" lon="-4.54321">
        <ele>16</ele>
        <time>2022-06-05T16:39:01.474Z</time>
      </trkpt>
      <trkpt lat="48.01186" lon="-4.54318">
        <ele>16</ele>
        <time>2022-06-05T16:39:06.468Z</time>
      </trkpt>
      <trkpt lat="48.01185" lon="-4.5431">
        <ele>16</ele>
        <time>2022-06-05T16:39:10.503Z</time>
      </trkpt>
      <trkpt lat="48.01183" lon="-4.54301">
        <ele>16</ele>
        <time>2022-06-05T16:39:15.472Z</time>
      </trkpt>
      <trkpt lat="48.01182" lon="-4.54294">
        <ele>16</ele>
        <time>2022-06-05T16:39:19.478Z</time>
      </trkpt>
      <trkpt lat="48.0118" lon="-4.54287">
        <ele>16</ele>
        <time>2022-06-05T16:39:23.473Z</time>
      </trkpt>
      <trkpt lat="48.01177" lon="-4.54279">
        <ele>16</ele>
        <time>2022-06-05T16:39:28.480Z</time>
      </trkpt>
      <trkpt lat="48.01175" lon="-4.54269">
        <ele>16</ele>
        <time>2022-06-05T16:39:33.496Z</time>
      </trkpt>
      <trkpt lat="48.01172" lon="-4.54261">
        <ele>14</ele>
        <time>2022-06-05T16:39:38.470Z</time>
      </trkpt>
      <trkpt lat="48.0117" lon="-4.54254">
        <ele>14</ele>
        <time>2022-06-05T16:39:42.485Z</time>
      </trkpt>
      <trkpt lat="48.01168" lon="-4.54247">
        <ele>14</ele>
        <time>2022-06-05T16:39:47.451Z</time>
      </trkpt>
      <trkpt lat="48.01167" lon="-4.54241">
        <ele>14</ele>
        <time>2022-06-05T16:39:51.480Z</time>
      </trkpt>
      <trkpt lat="48.01166" lon="-4.54236">
        <ele>10</ele>
        <time>2022-06-05T16:39:55.499Z</time>
      </trkpt>
      <trkpt lat="48.01165" lon="-4.5423">
        <ele>10</ele>
        <time>2022-06-05T16:40:00.460Z</time>
      </trkpt>
      <trkpt lat="48.01163" lon="-4.54223">
        <ele>10</ele>
        <time>2022-06-05T16:40:04.498Z</time>
      </trkpt>
      <trkpt lat="48.01163" lon="-4.54215">
        <ele>10</ele>
        <time>2022-06-05T16:40:09.507Z</time>
      </trkpt>
      <trkpt lat="48.01163" lon="-4.54205">
        <ele>5</ele>
        <time>2022-06-05T16:40:14.499Z</time>
      </trkpt>
      <trkpt lat="48.01166" lon="-4.54199">
        <ele>5</ele>
        <time>2022-06-05T16:40:19.460Z</time>
      </trkpt>
      <trkpt lat="48.0117" lon="-4.54197">
        <ele>5</ele>
        <time>2022-06-05T16:40:23.471Z</time>
      </trkpt>
      <trkpt lat="48.01175" lon="-4.54197">
        <ele>5</ele>
        <time>2022-06-05T16:40:27.487Z</time>
      </trkpt>
      <trkpt lat="48.01181" lon="-4.542">
        <ele>8</ele>
        <time>2022-06-05T16:40:32.440Z</time>
      </trkpt>
      <trkpt lat="48.01186" lon="-4.54202">
        <ele>8</ele>
        <time>2022-06-05T16:40:36.440Z</time>
      </trkpt>
      <trkpt lat="48.0119" lon="-4.54203">
        <ele>8</ele>
        <time>2022-06-05T16:40:40.478Z</time>
      </trkpt>
      <trkpt lat="48.01196" lon="-4.54204">
        <ele>8</ele>
        <time>2022-06-05T16:40:45.443Z</time>
      </trkpt>
      <trkpt lat="48.01202" lon="-4.54207">
        <ele>8</ele>
        <time>2022-06-05T16:40:50.439Z</time>
      </trkpt>
      <trkpt lat="48.01205" lon="-4.54207">
        <ele>8</ele>
        <time>2022-06-05T16:40:54.445Z</time>
      </trkpt>
      <trkpt lat="48.0121" lon="-4.54208">
        <ele>10</ele>
        <time>2022-06-05T16:40:58.462Z</time>
      </trkpt>
      <trkpt lat="48.01216" lon="-4.54207">
        <ele>10</ele>
        <time>2022-06-05T16:41:03.447Z</time>
      </trkpt>
      <trkpt lat="48.01221" lon="-4.54206">
        <ele>10</ele>
        <time>2022-06-05T16:41:07.447Z</time>
      </trkpt>
      <trkpt lat="48.01226" lon="-4.54205">
        <ele>10</ele>
        <time>2022-06-05T16:41:11.473Z</time>
      </trkpt>
      <trkpt lat="48.01231" lon="-4.54202">
        <ele>10</ele>
        <time>2022-06-05T16:41:16.442Z</time>
      </trkpt>
      <trkpt lat="48.01234" lon="-4.54197">
        <ele>10</ele>
        <time>2022-06-05T16:41:20.487Z</time>
      </trkpt>
      <trkpt lat="48.01239" lon="-4.54191">
        <ele>11</ele>
        <time>2022-06-05T16:41:25.489Z</time>
      </trkpt>
      <trkpt lat="48.01244" lon="-4.54185">
        <ele>11</ele>
        <time>2022-06-05T16:41:30.451Z</time>
      </trkpt>
      <trkpt lat="48.01249" lon="-4.5418">
        <ele>10</ele>
        <time>2022-06-05T16:41:35.462Z</time>
      </trkpt>
      <trkpt lat="48.01252" lon="-4.54173">
        <ele>10</ele>
        <time>2022-06-05T16:41:40.436Z</time>
      </trkpt>
      <trkpt lat="48.01254" lon="-4.54169">
        <ele>10</ele>
        <time>2022-06-05T16:41:44.456Z</time>
      </trkpt>
      <trkpt lat="48.01259" lon="-4.54162">
        <ele>10</ele>
        <time>2022-06-05T16:41:49.471Z</time>
      </trkpt>
      <trkpt lat="48.01263" lon="-4.54155">
        <ele>10</ele>
        <time>2022-06-05T16:41:54.498Z</time>
      </trkpt>
      <trkpt lat="48.01267" lon="-4.54148">
        <ele>10</ele>
        <time>2022-06-05T16:41:59.445Z</time>
      </trkpt>
      <trkpt lat="48.0127" lon="-4.54142">
        <ele>10</ele>
        <time>2022-06-05T16:42:04.441Z</time>
      </trkpt>
      <trkpt lat="48.01274" lon="-4.54135">
        <ele>10</ele>
        <time>2022-06-05T16:42:09.439Z</time>
      </trkpt>
      <trkpt lat="48.01277" lon="-4.54131">
        <ele>10</ele>
        <time>2022-06-05T16:42:13.443Z</time>
      </trkpt>
      <trkpt lat="48.01281" lon="-4.54127">
        <ele>10</ele>
        <time>2022-06-05T16:42:17.460Z</time>
      </trkpt>
      <trkpt lat="48.01284" lon="-4.54123">
        <ele>7</ele>
        <time>2022-06-05T16:42:21.465Z</time>
      </trkpt>
      <trkpt lat="48.01289" lon="-4.5412">
        <ele>7</ele>
        <time>2022-06-05T16:42:25.481Z</time>
      </trkpt>
      <trkpt lat="48.01294" lon="-4.54115">
        <ele>9</ele>
        <time>2022-06-05T16:42:30.463Z</time>
      </trkpt>
      <trkpt lat="48.01299" lon="-4.54111">
        <ele>9</ele>
        <time>2022-06-05T16:42:34.483Z</time>
      </trkpt>
      <trkpt lat="48.01304" lon="-4.54107">
        <ele>9</ele>
        <time>2022-06-05T16:42:39.476Z</time>
      </trkpt>
      <trkpt lat="48.01308" lon="-4.54103">
        <ele>9</ele>
        <time>2022-06-05T16:42:43.478Z</time>
      </trkpt>
      <trkpt lat="48.01313" lon="-4.54099">
        <ele>9</ele>
        <time>2022-06-05T16:42:48.442Z</time>
      </trkpt>
      <trkpt lat="48.01317" lon="-4.54094">
        <ele>7</ele>
        <time>2022-06-05T16:42:52.466Z</time>
      </trkpt>
      <trkpt lat="48.01321" lon="-4.5409">
        <ele>10</ele>
        <time>2022-06-05T16:42:56.481Z</time>
      </trkpt>
      <trkpt lat="48.01326" lon="-4.54084">
        <ele>10</ele>
        <time>2022-06-05T16:43:01.471Z</time>
      </trkpt>
      <trkpt lat="48.01329" lon="-4.54079">
        <ele>10</ele>
        <time>2022-06-05T16:43:05.483Z</time>
      </trkpt>
      <trkpt lat="48.01333" lon="-4.54073">
        <ele>10</ele>
        <time>2022-06-05T16:43:10.489Z</time>
      </trkpt>
      <trkpt lat="48.01338" lon="-4.54067">
        <ele>7</ele>
        <time>2022-06-05T16:43:15.462Z</time>
      </trkpt>
      <trkpt lat="48.0134" lon="-4.54062">
        <ele>7</ele>
        <time>2022-06-05T16:43:19.464Z</time>
      </trkpt>
      <trkpt lat="48.01344" lon="-4.54056">
        <ele>7</ele>
        <time>2022-06-05T16:43:24.467Z</time>
      </trkpt>
      <trkpt lat="48.01347" lon="-4.54051">
        <ele>11</ele>
        <time>2022-06-05T16:43:29.456Z</time>
      </trkpt>
      <trkpt lat="48.01351" lon="-4.54044">
        <ele>11</ele>
        <time>2022-06-05T16:43:34.457Z</time>
      </trkpt>
      <trkpt lat="48.01353" lon="-4.54037">
        <ele>10</ele>
        <time>2022-06-05T16:43:39.449Z</time>
      </trkpt>
      <trkpt lat="48.01356" lon="-4.54031">
        <ele>10</ele>
        <time>2022-06-05T16:43:43.482Z</time>
      </trkpt>
      <trkpt lat="48.0136" lon="-4.54025">
        <ele>10</ele>
        <time>2022-06-05T16:43:48.440Z</time>
      </trkpt>
      <trkpt lat="48.01363" lon="-4.54018">
        <ele>10</ele>
        <time>2022-06-05T16:43:52.475Z</time>
      </trkpt>
      <trkpt lat="48.01366" lon="-4.54011">
        <ele>7</ele>
        <time>2022-06-05T16:43:57.453Z</time>
      </trkpt>
      <trkpt lat="48.0137" lon="-4.54004">
        <ele>7</ele>
        <time>2022-06-05T16:44:02.431Z</time>
      </trkpt>
      <trkpt lat="48.01373" lon="-4.53999">
        <ele>7</ele>
        <time>2022-06-05T16:44:06.438Z</time>
      </trkpt>
      <trkpt lat="48.01377" lon="-4.53995">
        <ele>13</ele>
        <time>2022-06-05T16:44:10.477Z</time>
      </trkpt>
      <trkpt lat="48.01383" lon="-4.53991">
        <ele>13</ele>
        <time>2022-06-05T16:44:15.473Z</time>
      </trkpt>
      <trkpt lat="48.01388" lon="-4.53987">
        <ele>13</ele>
        <time>2022-06-05T16:44:20.467Z</time>
      </trkpt>
      <trkpt lat="48.01392" lon="-4.53983">
        <ele>9</ele>
        <time>2022-06-05T16:44:24.470Z</time>
      </trkpt>
      <trkpt lat="48.01398" lon="-4.5398">
        <ele>9</ele>
        <time>2022-06-05T16:44:29.480Z</time>
      </trkpt>
      <trkpt lat="48.01403" lon="-4.53974">
        <ele>13</ele>
        <time>2022-06-05T16:44:34.484Z</time>
      </trkpt>
      <trkpt lat="48.01409" lon="-4.5397">
        <ele>13</ele>
        <time>2022-06-05T16:44:39.459Z</time>
      </trkpt>
      <trkpt lat="48.01413" lon="-4.53966">
        <ele>13</ele>
        <time>2022-06-05T16:44:43.476Z</time>
      </trkpt>
      <trkpt lat="48.01418" lon="-4.53961">
        <ele>13</ele>
        <time>2022-06-05T16:44:48.454Z</time>
      </trkpt>
      <trkpt lat="48.01423" lon="-4.53958">
        <ele>12</ele>
        <time>2022-06-05T16:44:52.462Z</time>
      </trkpt>
      <trkpt lat="48.01427" lon="-4.53953">
        <ele>12</ele>
        <time>2022-06-05T16:44:56.466Z</time>
      </trkpt>
      <trkpt lat="48.0143" lon="-4.53951">
        <ele>12</ele>
        <time>2022-06-05T16:45:00.467Z</time>
      </trkpt>
      <trkpt lat="48.01436" lon="-4.53948">
        <ele>13</ele>
        <time>2022-06-05T16:45:05.476Z</time>
      </trkpt>
      <trkpt lat="48.01443" lon="-4.53942">
        <ele>13</ele>
        <time>2022-06-05T16:45:10.483Z</time>
      </trkpt>
      <trkpt lat="48.01449" lon="-4.53938">
        <ele>13</ele>
        <time>2022-06-05T16:45:15.467Z</time>
      </trkpt>
      <trkpt lat="48.01454" lon="-4.53932">
        <ele>13</ele>
        <time>2022-06-05T16:45:20.465Z</time>
      </trkpt>
      <trkpt lat="48.01459" lon="-4.5393">
        <ele>6</ele>
        <time>2022-06-05T16:45:24.474Z</time>
      </trkpt>
      <trkpt lat="48.01463" lon="-4.53927">
        <ele>6</ele>
        <time>2022-06-05T16:45:29.458Z</time>
      </trkpt>
      <trkpt lat="48.01467" lon="-4.53923">
        <ele>6</ele>
        <time>2022-06-05T16:45:33.477Z</time>
      </trkpt>
      <trkpt lat="48.01471" lon="-4.5392">
        <ele>6</ele>
        <time>2022-06-05T16:45:37.468Z</time>
      </trkpt>
      <trkpt lat="48.01476" lon="-4.53915">
        <ele>6</ele>
        <time>2022-06-05T16:45:42.472Z</time>
      </trkpt>
      <trkpt lat="48.0148" lon="-4.53912">
        <ele>6</ele>
        <time>2022-06-05T16:45:46.463Z</time>
      </trkpt>
      <trkpt lat="48.01484" lon="-4.53908">
        <ele>6</ele>
        <time>2022-06-05T16:45:50.459Z</time>
      </trkpt>
      <trkpt lat="48.01489" lon="-4.53905">
        <ele>8</ele>
        <time>2022-06-05T16:45:55.462Z</time>
      </trkpt>
      <trkpt lat="48.01493" lon="-4.53901">
        <ele>4</ele>
        <time>2022-06-05T16:45:59.471Z</time>
      </trkpt>
      <trkpt lat="48.01499" lon="-4.53896">
        <ele>4</ele>
        <time>2022-06-05T16:46:04.463Z</time>
      </trkpt>
      <trkpt lat="48.01503" lon="-4.53893">
        <ele>4</ele>
        <time>2022-06-05T16:46:08.480Z</time>
      </trkpt>
      <trkpt lat="48.01509" lon="-4.53889">
        <ele>4</ele>
        <time>2022-06-05T16:46:13.494Z</time>
      </trkpt>
      <trkpt lat="48.01514" lon="-4.53885">
        <ele>4</ele>
        <time>2022-06-05T16:46:17.494Z</time>
      </trkpt>
      <trkpt lat="48.0152" lon="-4.53882">
        <ele>7</ele>
        <time>2022-06-05T16:46:22.452Z</time>
      </trkpt>
      <trkpt lat="48.01524" lon="-4.53878">
        <ele>7</ele>
        <time>2022-06-05T16:46:26.455Z</time>
      </trkpt>
      <trkpt lat="48.01529" lon="-4.53875">
        <ele>7</ele>
        <time>2022-06-05T16:46:30.478Z</time>
      </trkpt>
      <trkpt lat="48.01535" lon="-4.5387">
        <ele>4</ele>
        <time>2022-06-05T16:46:35.474Z</time>
      </trkpt>
      <trkpt lat="48.01539" lon="-4.53869">
        <ele>4</ele>
        <time>2022-06-05T16:46:39.466Z</time>
      </trkpt>
      <trkpt lat="48.01546" lon="-4.53865">
        <ele>9</ele>
        <time>2022-06-05T16:46:44.476Z</time>
      </trkpt>
      <trkpt lat="48.0155" lon="-4.53862">
        <ele>9</ele>
        <time>2022-06-05T16:46:49.475Z</time>
      </trkpt>
      <trkpt lat="48.01555" lon="-4.5386">
        <ele>9</ele>
        <time>2022-06-05T16:46:54.451Z</time>
      </trkpt>
      <trkpt lat="48.0156" lon="-4.53856">
        <ele>9</ele>
        <time>2022-06-05T16:46:58.444Z</time>
      </trkpt>
      <trkpt lat="48.01566" lon="-4.53851">
        <ele>9</ele>
        <time>2022-06-05T16:47:03.466Z</time>
      </trkpt>
      <trkpt lat="48.01571" lon="-4.53843">
        <ele>3.5</ele>
        <time>2022-06-05T16:47:08.434Z</time>
      </trkpt>
      <trkpt lat="48.01575" lon="-4.53839">
        <ele>3.4</ele>
        <time>2022-06-05T16:47:12.470Z</time>
      </trkpt>
      <trkpt lat="48.01581" lon="-4.53836">
        <ele>3.2</ele>
        <time>2022-06-05T16:47:17.434Z</time>
      </trkpt>
      <trkpt lat="48.01587" lon="-4.53831">
        <ele>3.1</ele>
        <time>2022-06-05T16:47:22.450Z</time>
      </trkpt>
      <trkpt lat="48.01593" lon="-4.53826">
        <ele>3</ele>
        <time>2022-06-05T16:47:27.443Z</time>
      </trkpt>
      <trkpt lat="48.01598" lon="-4.53822">
        <ele>2.8</ele>
        <time>2022-06-05T16:47:31.468Z</time>
      </trkpt>
      <trkpt lat="48.01603" lon="-4.53818">
        <ele>2.6</ele>
        <time>2022-06-05T16:47:36.450Z</time>
      </trkpt>
      <trkpt lat="48.01609" lon="-4.53814">
        <ele>2.2</ele>
        <time>2022-06-05T16:47:41.445Z</time>
      </trkpt>
      <trkpt lat="48.01613" lon="-4.53811">
        <ele>2</ele>
        <time>2022-06-05T16:47:45.443Z</time>
      </trkpt>
      <trkpt lat="48.0162" lon="-4.53806">
        <ele>2.2</ele>
        <time>2022-06-05T16:47:50.428Z</time>
      </trkpt>
      <trkpt lat="48.01625" lon="-4.53801">
        <ele>6</ele>
        <time>2022-06-05T16:47:54.426Z</time>
      </trkpt>
      <trkpt lat="48.0163" lon="-4.53799">
        <ele>6</ele>
        <time>2022-06-05T16:47:58.436Z</time>
      </trkpt>
      <trkpt lat="48.01635" lon="-4.53796">
        <ele>6</ele>
        <time>2022-06-05T16:48:02.443Z</time>
      </trkpt>
      <trkpt lat="48.0164" lon="-4.53792">
        <ele>5</ele>
        <time>2022-06-05T16:48:07.438Z</time>
      </trkpt>
      <trkpt lat="48.01646" lon="-4.53788">
        <ele>5</ele>
        <time>2022-06-05T16:48:11.454Z</time>
      </trkpt>
      <trkpt lat="48.0165" lon="-4.53781">
        <ele>5</ele>
        <time>2022-06-05T16:48:16.450Z</time>
      </trkpt>
      <trkpt lat="48.01655" lon="-4.53776">
        <ele>4</ele>
        <time>2022-06-05T16:48:20.457Z</time>
      </trkpt>
      <trkpt lat="48.01659" lon="-4.53773">
        <ele>4</ele>
        <time>2022-06-05T16:48:24.473Z</time>
      </trkpt>
      <trkpt lat="48.01665" lon="-4.53768">
        <ele>4</ele>
        <time>2022-06-05T16:48:29.435Z</time>
      </trkpt>
      <trkpt lat="48.01669" lon="-4.53764">
        <ele>3.82</ele>
        <time>2022-06-05T16:48:33.481Z</time>
      </trkpt>
      <trkpt lat="48.01675" lon="-4.53759">
        <ele>3.37</ele>
        <time>2022-06-05T16:48:38.471Z</time>
      </trkpt>
      <trkpt lat="48.0168" lon="-4.53756">
        <ele>3.07</ele>
        <time>2022-06-05T16:48:42.494Z</time>
      </trkpt>
      <trkpt lat="48.01683" lon="-4.53752">
        <ele>1</ele>
        <time>2022-06-05T16:48:47.454Z</time>
      </trkpt>
      <trkpt lat="48.01684" lon="-4.53745">
        <ele>1</ele>
        <time>2022-06-05T16:48:52.466Z</time>
      </trkpt>
      <trkpt lat="48.01685" lon="-4.53735">
        <ele>-2</ele>
        <time>2022-06-05T16:48:57.487Z</time>
      </trkpt>
      <trkpt lat="48.01687" lon="-4.53727">
        <ele>-2</ele>
        <time>2022-06-05T16:49:01.490Z</time>
      </trkpt>
      <trkpt lat="48.01688" lon="-4.5372">
        <ele>-2</ele>
        <time>2022-06-05T16:49:06.481Z</time>
      </trkpt>
      <trkpt lat="48.0169" lon="-4.53709">
        <ele>-2</ele>
        <time>2022-06-05T16:49:11.453Z</time>
      </trkpt>
      <trkpt lat="48.01691" lon="-4.53702">
        <ele>-4</ele>
        <time>2022-06-05T16:49:15.465Z</time>
      </trkpt>
      <trkpt lat="48.01692" lon="-4.53694">
        <ele>-4</ele>
        <time>2022-06-05T16:49:19.470Z</time>
      </trkpt>
      <trkpt lat="48.01693" lon="-4.53684">
        <ele>-4</ele>
        <time>2022-06-05T16:49:24.477Z</time>
      </trkpt>
      <trkpt lat="48.01695" lon="-4.53673">
        <ele>-3</ele>
        <time>2022-06-05T16:49:29.460Z</time>
      </trkpt>
      <trkpt lat="48.01696" lon="-4.53665">
        <ele>-3</ele>
        <time>2022-06-05T16:49:33.482Z</time>
      </trkpt>
      <trkpt lat="48.01696" lon="-4.53655">
        <ele>-3</ele>
        <time>2022-06-05T16:49:38.472Z</time>
      </trkpt>
      <trkpt lat="48.01697" lon="-4.53646">
        <ele>1</ele>
        <time>2022-06-05T16:49:43.445Z</time>
      </trkpt>
      <trkpt lat="48.01699" lon="-4.53638">
        <ele>1</ele>
        <time>2022-06-05T16:49:48.443Z</time>
      </trkpt>
      <trkpt lat="48.017" lon="-4.53629">
        <ele>1</ele>
        <time>2022-06-05T16:49:53.460Z</time>
      </trkpt>
      <trkpt lat="48.01702" lon="-4.5362">
        <ele>1</ele>
        <time>2022-06-05T16:49:58.478Z</time>
      </trkpt>
      <trkpt lat="48.01703" lon="-4.5361">
        <ele>1</ele>
        <time>2022-06-05T16:50:03.479Z</time>
      </trkpt>
      <trkpt lat="48.01704" lon="-4.536">
        <ele>1</ele>
        <time>2022-06-05T16:50:08.458Z</time>
      </trkpt>
      <trkpt lat="48.01706" lon="-4.53596">
        <ele>1</ele>
        <time>2022-06-05T16:50:12.477Z</time>
      </trkpt>
      <trkpt lat="48.01706" lon="-4.53589">
        <ele>1</ele>
        <time>2022-06-05T16:50:17.470Z</time>
      </trkpt>
      <trkpt lat="48.01708" lon="-4.53583">
        <ele>1</ele>
        <time>2022-06-05T16:50:22.476Z</time>
      </trkpt>
      <trkpt lat="48.01712" lon="-4.53583">
        <ele>1</ele>
        <time>2022-06-05T16:50:26.484Z</time>
      </trkpt>
      <trkpt lat="48.01719" lon="-4.53585">
        <ele>1</ele>
        <time>2022-06-05T16:50:31.478Z</time>
      </trkpt>
      <trkpt lat="48.01725" lon="-4.53586">
        <ele>1</ele>
        <time>2022-06-05T16:50:36.435Z</time>
      </trkpt>
      <trkpt lat="48.0173" lon="-4.53585">
        <ele>1</ele>
        <time>2022-06-05T16:50:40.462Z</time>
      </trkpt>
      <trkpt lat="48.01736" lon="-4.53586">
        <ele>3</ele>
        <time>2022-06-05T16:50:45.468Z</time>
      </trkpt>
      <trkpt lat="48.01742" lon="-4.53586">
        <ele>3</ele>
        <time>2022-06-05T16:50:50.454Z</time>
      </trkpt>
      <trkpt lat="48.01747" lon="-4.53587">
        <ele>3</ele>
        <time>2022-06-05T16:50:54.482Z</time>
      </trkpt>
      <trkpt lat="48.01753" lon="-4.53589">
        <ele>3</ele>
        <time>2022-06-05T16:50:59.473Z</time>
      </trkpt>
      <trkpt lat="48.01759" lon="-4.53592">
        <ele>3</ele>
        <time>2022-06-05T16:51:04.463Z</time>
      </trkpt>
      <trkpt lat="48.01763" lon="-4.53593">
        <ele>3</ele>
        <time>2022-06-05T16:51:08.461Z</time>
      </trkpt>
      <trkpt lat="48.01769" lon="-4.53593">
        <ele>7</ele>
        <time>2022-06-05T16:51:13.464Z</time>
      </trkpt>
      <trkpt lat="48.01774" lon="-4.53591">
        <ele>7</ele>
        <time>2022-06-05T16:51:17.476Z</time>
      </trkpt>
      <trkpt lat="48.0178" lon="-4.53589">
        <ele>7</ele>
        <time>2022-06-05T16:51:22.480Z</time>
      </trkpt>
      <trkpt lat="48.01783" lon="-4.53586">
        <ele>7</ele>
        <time>2022-06-05T16:51:27.434Z</time>
      </trkpt>
      <trkpt lat="48.01785" lon="-4.53583">
        <ele>7</ele>
        <time>2022-06-05T16:51:31.456Z</time>
      </trkpt>
      <trkpt lat="48.01788" lon="-4.53579">
        <ele>7</ele>
        <time>2022-06-05T16:51:35.481Z</time>
      </trkpt>
      <trkpt lat="48.01792" lon="-4.53574">
        <ele>11</ele>
        <time>2022-06-05T16:51:39.485Z</time>
      </trkpt>
      <trkpt lat="48.01796" lon="-4.53567">
        <ele>9</ele>
        <time>2022-06-05T16:51:44.447Z</time>
      </trkpt>
      <trkpt lat="48.018" lon="-4.53562">
        <ele>9</ele>
        <time>2022-06-05T16:51:48.484Z</time>
      </trkpt>
      <trkpt lat="48.01804" lon="-4.53559">
        <ele>9</ele>
        <time>2022-06-05T16:51:53.478Z</time>
      </trkpt>
      <trkpt lat="48.01809" lon="-4.53553">
        <ele>9</ele>
        <time>2022-06-05T16:51:58.467Z</time>
      </trkpt>
      <trkpt lat="48.01815" lon="-4.53547">
        <ele>9</ele>
        <time>2022-06-05T16:52:03.457Z</time>
      </trkpt>
      <trkpt lat="48.01819" lon="-4.53543">
        <ele>9</ele>
        <time>2022-06-05T16:52:07.467Z</time>
      </trkpt>
      <trkpt lat="48.01824" lon="-4.53538">
        <ele>8</ele>
        <time>2022-06-05T16:52:12.467Z</time>
      </trkpt>
      <trkpt lat="48.01828" lon="-4.53536">
        <ele>8</ele>
        <time>2022-06-05T16:52:16.471Z</time>
      </trkpt>
      <trkpt lat="48.01832" lon="-4.53535">
        <ele>8</ele>
        <time>2022-06-05T16:52:20.483Z</time>
      </trkpt>
      <trkpt lat="48.01837" lon="-4.53534">
        <ele>8</ele>
        <time>2022-06-05T16:52:25.485Z</time>
      </trkpt>
      <trkpt lat="48.01843" lon="-4.53532">
        <ele>8</ele>
        <time>2022-06-05T16:52:30.474Z</time>
      </trkpt>
      <trkpt lat="48.01848" lon="-4.53528">
        <ele>8</ele>
        <time>2022-06-05T16:52:35.470Z</time>
      </trkpt>
      <trkpt lat="48.01853" lon="-4.53524">
        <ele>8</ele>
        <time>2022-06-05T16:52:40.472Z</time>
      </trkpt>
      <trkpt lat="48.01856" lon="-4.53522">
        <ele>8</ele>
        <time>2022-06-05T16:52:45.463Z</time>
      </trkpt>
      <trkpt lat="48.01861" lon="-4.53521">
        <ele>8</ele>
        <time>2022-06-05T16:52:50.464Z</time>
      </trkpt>
      <trkpt lat="48.01865" lon="-4.5352">
        <ele>8</ele>
        <time>2022-06-05T16:52:54.471Z</time>
      </trkpt>
      <trkpt lat="48.01871" lon="-4.53519">
        <ele>8</ele>
        <time>2022-06-05T16:52:59.471Z</time>
      </trkpt>
      <trkpt lat="48.01876" lon="-4.53518">
        <ele>7</ele>
        <time>2022-06-05T16:53:03.482Z</time>
      </trkpt>
      <trkpt lat="48.01881" lon="-4.53516">
        <ele>7</ele>
        <time>2022-06-05T16:53:08.463Z</time>
      </trkpt>
      <trkpt lat="48.01886" lon="-4.53515">
        <ele>7</ele>
        <time>2022-06-05T16:53:13.471Z</time>
      </trkpt>
      <trkpt lat="48.01892" lon="-4.53512">
        <ele>5</ele>
        <time>2022-06-05T16:53:18.484Z</time>
      </trkpt>
      <trkpt lat="48.01897" lon="-4.5351">
        <ele>5</ele>
        <time>2022-06-05T16:53:23.464Z</time>
      </trkpt>
      <trkpt lat="48.01904" lon="-4.53507">
        <ele>3</ele>
        <time>2022-06-05T16:53:28.446Z</time>
      </trkpt>
      <trkpt lat="48.0191" lon="-4.53503">
        <ele>3</ele>
        <time>2022-06-05T16:53:33.499Z</time>
      </trkpt>
      <trkpt lat="48.01916" lon="-4.53503">
        <ele>3</ele>
        <time>2022-06-05T16:53:38.482Z</time>
      </trkpt>
      <trkpt lat="48.01922" lon="-4.53503">
        <ele>3</ele>
        <time>2022-06-05T16:53:43.476Z</time>
      </trkpt>
      <trkpt lat="48.01927" lon="-4.53505">
        <ele>3</ele>
        <time>2022-06-05T16:53:47.482Z</time>
      </trkpt>
      <trkpt lat="48.01932" lon="-4.5351">
        <ele>2</ele>
        <time>2022-06-05T16:53:52.498Z</time>
      </trkpt>
      <trkpt lat="48.01937" lon="-4.53514">
        <ele>3</ele>
        <time>2022-06-05T16:53:57.469Z</time>
      </trkpt>
      <trkpt lat="48.0194" lon="-4.53518">
        <ele>3</ele>
        <time>2022-06-05T16:54:01.487Z</time>
      </trkpt>
      <trkpt lat="48.01942" lon="-4.53524">
        <ele>3</ele>
        <time>2022-06-05T16:54:05.478Z</time>
      </trkpt>
      <trkpt lat="48.01947" lon="-4.53528">
        <ele>3</ele>
        <time>2022-06-05T16:54:10.470Z</time>
      </trkpt>
      <trkpt lat="48.01953" lon="-4.53532">
        <ele>3</ele>
        <time>2022-06-05T16:54:15.472Z</time>
      </trkpt>
      <trkpt lat="48.01957" lon="-4.53536">
        <ele>3</ele>
        <time>2022-06-05T16:54:19.484Z</time>
      </trkpt>
      <trkpt lat="48.01962" lon="-4.53542">
        <ele>5</ele>
        <time>2022-06-05T16:54:24.474Z</time>
      </trkpt>
      <trkpt lat="48.01966" lon="-4.53546">
        <ele>5</ele>
        <time>2022-06-05T16:54:28.478Z</time>
      </trkpt>
      <trkpt lat="48.01971" lon="-4.5355">
        <ele>5</ele>
        <time>2022-06-05T16:54:33.453Z</time>
      </trkpt>
      <trkpt lat="48.01976" lon="-4.53553">
        <ele>5</ele>
        <time>2022-06-05T16:54:37.475Z</time>
      </trkpt>
      <trkpt lat="48.0198" lon="-4.53557">
        <ele>5</ele>
        <time>2022-06-05T16:54:42.452Z</time>
      </trkpt>
      <trkpt lat="48.01985" lon="-4.53563">
        <ele>5</ele>
        <time>2022-06-05T16:54:46.455Z</time>
      </trkpt>
      <trkpt lat="48.01989" lon="-4.5357">
        <ele>5</ele>
        <time>2022-06-05T16:54:51.457Z</time>
      </trkpt>
      <trkpt lat="48.01993" lon="-4.53573">
        <ele>5</ele>
        <time>2022-06-05T16:54:55.471Z</time>
      </trkpt>
      <trkpt lat="48.01997" lon="-4.53575">
        <ele>5</ele>
        <time>2022-06-05T16:54:59.474Z</time>
      </trkpt>
      <trkpt lat="48.02002" lon="-4.53579">
        <ele>5</ele>
        <time>2022-06-05T16:55:04.487Z</time>
      </trkpt>
      <trkpt lat="48.02008" lon="-4.53584">
        <ele>5</ele>
        <time>2022-06-05T16:55:09.487Z</time>
      </trkpt>
      <trkpt lat="48.02011" lon="-4.53588">
        <ele>5</ele>
        <time>2022-06-05T16:55:13.476Z</time>
      </trkpt>
      <trkpt lat="48.02017" lon="-4.53589">
        <ele>2</ele>
        <time>2022-06-05T16:55:18.471Z</time>
      </trkpt>
      <trkpt lat="48.02021" lon="-4.53593">
        <ele>2</ele>
        <time>2022-06-05T16:55:22.476Z</time>
      </trkpt>
      <trkpt lat="48.02025" lon="-4.53597">
        <ele>6</ele>
        <time>2022-06-05T16:55:27.452Z</time>
      </trkpt>
      <trkpt lat="48.0203" lon="-4.53602">
        <ele>6</ele>
        <time>2022-06-05T16:55:32.479Z</time>
      </trkpt>
      <trkpt lat="48.02035" lon="-4.53608">
        <ele>6</ele>
        <time>2022-06-05T16:55:37.484Z</time>
      </trkpt>
      <trkpt lat="48.02039" lon="-4.53614">
        <ele>6</ele>
        <time>2022-06-05T16:55:42.477Z</time>
      </trkpt>
      <trkpt lat="48.02044" lon="-4.53618">
        <ele>5</ele>
        <time>2022-06-05T16:55:47.484Z</time>
      </trkpt>
      <trkpt lat="48.02048" lon="-4.53624">
        <ele>5</ele>
        <time>2022-06-05T16:55:51.500Z</time>
      </trkpt>
      <trkpt lat="48.02051" lon="-4.53629">
        <ele>7</ele>
        <time>2022-06-05T16:55:56.477Z</time>
      </trkpt>
      <trkpt lat="48.02055" lon="-4.53635">
        <ele>7</ele>
        <time>2022-06-05T16:56:01.484Z</time>
      </trkpt>
      <trkpt lat="48.02058" lon="-4.53639">
        <ele>7</ele>
        <time>2022-06-05T16:56:05.485Z</time>
      </trkpt>
      <trkpt lat="48.02063" lon="-4.53644">
        <ele>7</ele>
        <time>2022-06-05T16:56:10.469Z</time>
      </trkpt>
      <trkpt lat="48.02067" lon="-4.53648">
        <ele>7</ele>
        <time>2022-06-05T16:56:14.458Z</time>
      </trkpt>
      <trkpt lat="48.0207" lon="-4.53653">
        <ele>6</ele>
        <time>2022-06-05T16:56:18.470Z</time>
      </trkpt>
      <trkpt lat="48.02075" lon="-4.53661">
        <ele>6</ele>
        <time>2022-06-05T16:56:23.480Z</time>
      </trkpt>
      <trkpt lat="48.02077" lon="-4.5367">
        <ele>6</ele>
        <time>2022-06-05T16:56:28.464Z</time>
      </trkpt>
      <trkpt lat="48.02081" lon="-4.53674">
        <ele>6</ele>
        <time>2022-06-05T16:56:32.481Z</time>
      </trkpt>
      <trkpt lat="48.02086" lon="-4.53678">
        <ele>6</ele>
        <time>2022-06-05T16:56:36.481Z</time>
      </trkpt>
      <trkpt lat="48.02092" lon="-4.53682">
        <ele>8</ele>
        <time>2022-06-05T16:56:41.455Z</time>
      </trkpt>
      <trkpt lat="48.02096" lon="-4.53687">
        <ele>8</ele>
        <time>2022-06-05T16:56:46.477Z</time>
      </trkpt>
      <trkpt lat="48.02099" lon="-4.53692">
        <ele>6</ele>
        <time>2022-06-05T16:56:51.454Z</time>
      </trkpt>
      <trkpt lat="48.02102" lon="-4.53697">
        <ele>6</ele>
        <time>2022-06-05T16:56:55.473Z</time>
      </trkpt>
      <trkpt lat="48.02105" lon="-4.53701">
        <ele>6</ele>
        <time>2022-06-05T16:57:00.459Z</time>
      </trkpt>
      <trkpt lat="48.02109" lon="-4.53708">
        <ele>6</ele>
        <time>2022-06-05T16:57:05.476Z</time>
      </trkpt>
      <trkpt lat="48.02114" lon="-4.53714">
        <ele>7</ele>
        <time>2022-06-05T16:57:10.438Z</time>
      </trkpt>
      <trkpt lat="48.02118" lon="-4.5372">
        <ele>7</ele>
        <time>2022-06-05T16:57:15.474Z</time>
      </trkpt>
      <trkpt lat="48.0212" lon="-4.53723">
        <ele>7</ele>
        <time>2022-06-05T16:57:19.474Z</time>
      </trkpt>
      <trkpt lat="48.02124" lon="-4.53728">
        <ele>7</ele>
        <time>2022-06-05T16:57:23.491Z</time>
      </trkpt>
      <trkpt lat="48.02128" lon="-4.53733">
        <ele>7</ele>
        <time>2022-06-05T16:57:28.477Z</time>
      </trkpt>
      <trkpt lat="48.02132" lon="-4.53738">
        <ele>8</ele>
        <time>2022-06-05T16:57:33.457Z</time>
      </trkpt>
      <trkpt lat="48.02135" lon="-4.53743">
        <ele>8</ele>
        <time>2022-06-05T16:57:37.479Z</time>
      </trkpt>
      <trkpt lat="48.02144" lon="-4.53741">
        <ele>8</ele>
        <time>2022-06-05T17:06:00.442Z</time>
      </trkpt>
      <trkpt lat="48.02145" lon="-4.53743">
        <ele>8</ele>
        <time>2022-06-05T17:06:04.468Z</time>
      </trkpt>
      <trkpt lat="48.02147" lon="-4.53748">
        <ele>8</ele>
        <time>2022-06-05T17:06:09.456Z</time>
      </trkpt>
      <trkpt lat="48.02148" lon="-4.53753">
        <ele>8</ele>
        <time>2022-06-05T17:06:13.451Z</time>
      </trkpt>
      <trkpt lat="48.02148" lon="-4.53756">
        <ele>8</ele>
        <time>2022-06-05T17:06:17.470Z</time>
      </trkpt>
      <trkpt lat="48.02148" lon="-4.53762">
        <ele>8</ele>
        <time>2022-06-05T17:06:22.434Z</time>
      </trkpt>
      <trkpt lat="48.0215" lon="-4.53768">
        <ele>8</ele>
        <time>2022-06-05T17:06:26.461Z</time>
      </trkpt>
      <trkpt lat="48.02153" lon="-4.53774">
        <ele>6</ele>
        <time>2022-06-05T17:06:31.466Z</time>
      </trkpt>
      <trkpt lat="48.02157" lon="-4.53778">
        <ele>6</ele>
        <time>2022-06-05T17:06:36.465Z</time>
      </trkpt>
      <trkpt lat="48.02161" lon="-4.53784">
        <ele>6</ele>
        <time>2022-06-05T17:06:41.449Z</time>
      </trkpt>
      <trkpt lat="48.02165" lon="-4.5379">
        <ele>6</ele>
        <time>2022-06-05T17:06:45.452Z</time>
      </trkpt>
      <trkpt lat="48.0217" lon="-4.53795">
        <ele>7</ele>
        <time>2022-06-05T17:06:50.467Z</time>
      </trkpt>
      <trkpt lat="48.02174" lon="-4.53799">
        <ele>7</ele>
        <time>2022-06-05T17:06:55.462Z</time>
      </trkpt>
      <trkpt lat="48.02178" lon="-4.53802">
        <ele>7</ele>
        <time>2022-06-05T17:07:00.468Z</time>
      </trkpt>
      <trkpt lat="48.02181" lon="-4.53805">
        <ele>4</ele>
        <time>2022-06-05T17:07:05.454Z</time>
      </trkpt>
      <trkpt lat="48.02182" lon="-4.5381">
        <ele>4</ele>
        <time>2022-06-05T17:07:10.465Z</time>
      </trkpt>
      <trkpt lat="48.02181" lon="-4.53813">
        <ele>4</ele>
        <time>2022-06-05T17:07:15.445Z</time>
      </trkpt>
      <trkpt lat="48.02181" lon="-4.53823">
        <ele>5</ele>
        <time>2022-06-05T17:07:20.443Z</time>
      </trkpt>
      <trkpt lat="48.02184" lon="-4.53828">
        <ele>5</ele>
        <time>2022-06-05T17:07:24.457Z</time>
      </trkpt>
      <trkpt lat="48.02178" lon="-4.5383">
        <ele>9</ele>
        <time>2022-06-05T17:07:29.445Z</time>
      </trkpt>
      <trkpt lat="48.02177" lon="-4.53829">
        <ele>9</ele>
        <time>2022-06-05T17:07:35.441Z</time>
      </trkpt>
      <trkpt lat="48.02186" lon="-4.53802">
        <ele>4</ele>
        <time>2022-06-05T17:07:40.434Z</time>
      </trkpt>
      <trkpt lat="48.02189" lon="-4.53806">
        <ele>4</ele>
        <time>2022-06-05T18:57:12.453Z</time>
      </trkpt>
      <trkpt lat="48.02193" lon="-4.5381">
        <ele>4</ele>
        <time>2022-06-05T18:57:16.479Z</time>
      </trkpt>
      <trkpt lat="48.02194" lon="-4.5381">
        <ele>4</ele>
        <time>2022-06-05T18:57:20.480Z</time>
      </trkpt>
      <trkpt lat="48.02194" lon="-4.53811">
        <ele>4</ele>
        <time>2022-06-05T18:57:25.447Z</time>
      </trkpt>
      <trkpt lat="48.02193" lon="-4.53812">
        <ele>4</ele>
        <time>2022-06-05T18:57:29.456Z</time>
      </trkpt>
      <trkpt lat="48.02192" lon="-4.53814">
        <ele>4</ele>
        <time>2022-06-05T18:57:42.479Z</time>
      </trkpt>
      <trkpt lat="48.02192" lon="-4.53815">
        <ele>4</ele>
        <time>2022-06-05T18:57:47.444Z</time>
      </trkpt>
      <trkpt lat="48.02194" lon="-4.53817">
        <ele>4</ele>
        <time>2022-06-05T18:57:51.494Z</time>
      </trkpt>
      <trkpt lat="48.02197" lon="-4.53823">
        <ele>5</ele>
        <time>2022-06-05T18:57:56.486Z</time>
      </trkpt>
      <trkpt lat="48.02199" lon="-4.53826">
        <ele>5</ele>
        <time>2022-06-05T18:58:01.459Z</time>
      </trkpt>
      <trkpt lat="48.02202" lon="-4.53828">
        <ele>5</ele>
        <time>2022-06-05T18:58:06.471Z</time>
      </trkpt>
      <trkpt lat="48.02205" lon="-4.5383">
        <ele>5</ele>
        <time>2022-06-05T18:58:11.455Z</time>
      </trkpt>
      <trkpt lat="48.02208" lon="-4.53834">
        <ele>5</ele>
        <time>2022-06-05T18:58:15.474Z</time>
      </trkpt>
      <trkpt lat="48.02212" lon="-4.53842">
        <ele>4</ele>
        <time>2022-06-05T18:58:20.482Z</time>
      </trkpt>
      <trkpt lat="48.02214" lon="-4.53845">
        <ele>4</ele>
        <time>2022-06-05T18:58:24.483Z</time>
      </trkpt>
      <trkpt lat="48.02218" lon="-4.53848">
        <ele>5</ele>
        <time>2022-06-05T18:58:29.487Z</time>
      </trkpt>
      <trkpt lat="48.02225" lon="-4.53852">
        <ele>5</ele>
        <time>2022-06-05T18:58:34.481Z</time>
      </trkpt>
      <trkpt lat="48.0223" lon="-4.53857">
        <ele>5</ele>
        <time>2022-06-05T18:58:39.477Z</time>
      </trkpt>
      <trkpt lat="48.02234" lon="-4.5386">
        <ele>5</ele>
        <time>2022-06-05T18:58:44.462Z</time>
      </trkpt>
      <trkpt lat="48.02239" lon="-4.53865">
        <ele>8</ele>
        <time>2022-06-05T18:58:49.478Z</time>
      </trkpt>
      <trkpt lat="48.02243" lon="-4.53868">
        <ele>8</ele>
        <time>2022-06-05T18:58:54.475Z</time>
      </trkpt>
      <trkpt lat="48.02247" lon="-4.53869">
        <ele>8</ele>
        <time>2022-06-05T18:58:59.494Z</time>
      </trkpt>
      <trkpt lat="48.02253" lon="-4.53869">
        <ele>8</ele>
        <time>2022-06-05T18:59:04.479Z</time>
      </trkpt>
      <trkpt lat="48.02258" lon="-4.53869">
        <ele>8</ele>
        <time>2022-06-05T18:59:09.484Z</time>
      </trkpt>
      <trkpt lat="48.02262" lon="-4.53869">
        <ele>8</ele>
        <time>2022-06-05T18:59:13.498Z</time>
      </trkpt>
      <trkpt lat="48.02268" lon="-4.53868">
        <ele>6</ele>
        <time>2022-06-05T18:59:18.491Z</time>
      </trkpt>
      <trkpt lat="48.02274" lon="-4.53867">
        <ele>6</ele>
        <time>2022-06-05T18:59:23.475Z</time>
      </trkpt>
      <trkpt lat="48.02279" lon="-4.53866">
        <ele>6</ele>
        <time>2022-06-05T18:59:27.502Z</time>
      </trkpt>
      <trkpt lat="48.02285" lon="-4.53864">
        <ele>6</ele>
        <time>2022-06-05T18:59:32.471Z</time>
      </trkpt>
      <trkpt lat="48.02291" lon="-4.53863">
        <ele>6</ele>
        <time>2022-06-05T18:59:37.482Z</time>
      </trkpt>
      <trkpt lat="48.02298" lon="-4.53861">
        <ele>4</ele>
        <time>2022-06-05T18:59:42.484Z</time>
      </trkpt>
      <trkpt lat="48.02304" lon="-4.5386">
        <ele>4</ele>
        <time>2022-06-05T18:59:47.471Z</time>
      </trkpt>
      <trkpt lat="48.0231" lon="-4.53858">
        <ele>4</ele>
        <time>2022-06-05T18:59:52.467Z</time>
      </trkpt>
      <trkpt lat="48.02317" lon="-4.53857">
        <ele>4</ele>
        <time>2022-06-05T18:59:57.493Z</time>
      </trkpt>
      <trkpt lat="48.02324" lon="-4.53854">
        <ele>4</ele>
        <time>2022-06-05T19:00:02.504Z</time>
      </trkpt>
      <trkpt lat="48.02329" lon="-4.53847">
        <ele>4</ele>
        <time>2022-06-05T19:00:07.496Z</time>
      </trkpt>
      <trkpt lat="48.02333" lon="-4.53839">
        <ele>4</ele>
        <time>2022-06-05T19:00:12.473Z</time>
      </trkpt>
      <trkpt lat="48.02337" lon="-4.53833">
        <ele>4</ele>
        <time>2022-06-05T19:00:16.489Z</time>
      </trkpt>
      <trkpt lat="48.02341" lon="-4.53825">
        <ele>4</ele>
        <time>2022-06-05T19:00:21.461Z</time>
      </trkpt>
      <trkpt lat="48.02344" lon="-4.53819">
        <ele>5</ele>
        <time>2022-06-05T19:00:25.477Z</time>
      </trkpt>
      <trkpt lat="48.02347" lon="-4.53814">
        <ele>6</ele>
        <time>2022-06-05T19:00:29.500Z</time>
      </trkpt>
      <trkpt lat="48.02351" lon="-4.53806">
        <ele>6</ele>
        <time>2022-06-05T19:00:34.480Z</time>
      </trkpt>
      <trkpt lat="48.02354" lon="-4.53798">
        <ele>6</ele>
        <time>2022-06-05T19:00:39.479Z</time>
      </trkpt>
      <trkpt lat="48.02356" lon="-4.53789">
        <ele>5</ele>
        <time>2022-06-05T19:00:44.474Z</time>
      </trkpt>
      <trkpt lat="48.0236" lon="-4.5378">
        <ele>5</ele>
        <time>2022-06-05T19:00:49.483Z</time>
      </trkpt>
      <trkpt lat="48.02363" lon="-4.53772">
        <ele>5</ele>
        <time>2022-06-05T19:00:54.455Z</time>
      </trkpt>
      <trkpt lat="48.02366" lon="-4.53766">
        <ele>5</ele>
        <time>2022-06-05T19:00:58.502Z</time>
      </trkpt>
      <trkpt lat="48.0237" lon="-4.53759">
        <ele>5</ele>
        <time>2022-06-05T19:01:03.471Z</time>
      </trkpt>
      <trkpt lat="48.02374" lon="-4.53751">
        <ele>5</ele>
        <time>2022-06-05T19:01:08.473Z</time>
      </trkpt>
      <trkpt lat="48.02379" lon="-4.53744">
        <ele>5</ele>
        <time>2022-06-05T19:01:13.463Z</time>
      </trkpt>
      <trkpt lat="48.02382" lon="-4.53737">
        <ele>5</ele>
        <time>2022-06-05T19:01:17.469Z</time>
      </trkpt>
      <trkpt lat="48.02386" lon="-4.53729">
        <ele>4</ele>
        <time>2022-06-05T19:01:22.479Z</time>
      </trkpt>
      <trkpt lat="48.02388" lon="-4.53723">
        <ele>4</ele>
        <time>2022-06-05T19:01:26.474Z</time>
      </trkpt>
      <trkpt lat="48.02391" lon="-4.53717">
        <ele>4</ele>
        <time>2022-06-05T19:01:30.503Z</time>
      </trkpt>
      <trkpt lat="48.02396" lon="-4.53708">
        <ele>3</ele>
        <time>2022-06-05T19:01:35.476Z</time>
      </trkpt>
      <trkpt lat="48.02399" lon="-4.537">
        <ele>3</ele>
        <time>2022-06-05T19:01:40.492Z</time>
      </trkpt>
      <trkpt lat="48.02403" lon="-4.53692">
        <ele>4</ele>
        <time>2022-06-05T19:01:45.457Z</time>
      </trkpt>
      <trkpt lat="48.02406" lon="-4.53686">
        <ele>4</ele>
        <time>2022-06-05T19:01:49.495Z</time>
      </trkpt>
      <trkpt lat="48.0241" lon="-4.53679">
        <ele>3</ele>
        <time>2022-06-05T19:01:54.516Z</time>
      </trkpt>
      <trkpt lat="48.02413" lon="-4.53671">
        <ele>3</ele>
        <time>2022-06-05T19:01:59.482Z</time>
      </trkpt>
      <trkpt lat="48.02417" lon="-4.53663">
        <ele>3</ele>
        <time>2022-06-05T19:02:04.471Z</time>
      </trkpt>
      <trkpt lat="48.02419" lon="-4.53657">
        <ele>3</ele>
        <time>2022-06-05T19:02:08.478Z</time>
      </trkpt>
      <trkpt lat="48.02423" lon="-4.53649">
        <ele>5</ele>
        <time>2022-06-05T19:02:13.467Z</time>
      </trkpt>
      <trkpt lat="48.02425" lon="-4.53643">
        <ele>5</ele>
        <time>2022-06-05T19:02:17.486Z</time>
      </trkpt>
      <trkpt lat="48.02429" lon="-4.53637">
        <ele>5</ele>
        <time>2022-06-05T19:02:21.498Z</time>
      </trkpt>
      <trkpt lat="48.02433" lon="-4.53629">
        <ele>4</ele>
        <time>2022-06-05T19:02:26.501Z</time>
      </trkpt>
      <trkpt lat="48.02437" lon="-4.53622">
        <ele>3</ele>
        <time>2022-06-05T19:02:31.490Z</time>
      </trkpt>
      <trkpt lat="48.02442" lon="-4.53615">
        <ele>3</ele>
        <time>2022-06-05T19:02:36.488Z</time>
      </trkpt>
      <trkpt lat="48.02446" lon="-4.53609">
        <ele>3</ele>
        <time>2022-06-05T19:02:41.463Z</time>
      </trkpt>
      <trkpt lat="48.02451" lon="-4.53602">
        <ele>3</ele>
        <time>2022-06-05T19:02:46.470Z</time>
      </trkpt>
      <trkpt lat="48.02454" lon="-4.53597">
        <ele>3</ele>
        <time>2022-06-05T19:02:50.472Z</time>
      </trkpt>
      <trkpt lat="48.0246" lon="-4.53593">
        <ele>2</ele>
        <time>2022-06-05T19:02:55.512Z</time>
      </trkpt>
      <trkpt lat="48.02464" lon="-4.53587">
        <ele>2</ele>
        <time>2022-06-05T19:03:00.468Z</time>
      </trkpt>
      <trkpt lat="48.02469" lon="-4.5358">
        <ele>2</ele>
        <time>2022-06-05T19:03:05.486Z</time>
      </trkpt>
      <trkpt lat="48.02471" lon="-4.53572">
        <ele>2</ele>
        <time>2022-06-05T19:03:09.491Z</time>
      </trkpt>
      <trkpt lat="48.0247" lon="-4.53562">
        <ele>1</ele>
        <time>2022-06-05T19:03:14.480Z</time>
      </trkpt>
      <trkpt lat="48.0247" lon="-4.53552">
        <ele>1</ele>
        <time>2022-06-05T19:03:19.473Z</time>
      </trkpt>
      <trkpt lat="48.02469" lon="-4.53544">
        <ele>1</ele>
        <time>2022-06-05T19:03:23.483Z</time>
      </trkpt>
      <trkpt lat="48.02467" lon="-4.53535">
        <ele>1</ele>
        <time>2022-06-05T19:03:28.490Z</time>
      </trkpt>
      <trkpt lat="48.02464" lon="-4.53528">
        <ele>1</ele>
        <time>2022-06-05T19:03:32.494Z</time>
      </trkpt>
      <trkpt lat="48.0246" lon="-4.5352">
        <ele>1</ele>
        <time>2022-06-05T19:03:37.513Z</time>
      </trkpt>
      <trkpt lat="48.02457" lon="-4.53511">
        <ele>1</ele>
        <time>2022-06-05T19:03:42.500Z</time>
      </trkpt>
      <trkpt lat="48.02453" lon="-4.53503">
        <ele>1</ele>
        <time>2022-06-05T19:03:47.486Z</time>
      </trkpt>
      <trkpt lat="48.02449" lon="-4.53495">
        <ele>1</ele>
        <time>2022-06-05T19:03:52.503Z</time>
      </trkpt>
      <trkpt lat="48.02446" lon="-4.53487">
        <ele>1</ele>
        <time>2022-06-05T19:03:57.484Z</time>
      </trkpt>
      <trkpt lat="48.02443" lon="-4.53481">
        <time>2022-06-05T19:04:01.497Z</time>
      </trkpt>
      <trkpt lat="48.0244" lon="-4.53475">
        <time>2022-06-05T19:04:05.487Z</time>
      </trkpt>
      <trkpt lat="48.02435" lon="-4.53467">
        <ele>3</ele>
        <time>2022-06-05T19:04:10.483Z</time>
      </trkpt>
      <trkpt lat="48.02432" lon="-4.5346">
        <ele>3</ele>
        <time>2022-06-05T19:04:14.483Z</time>
      </trkpt>
      <trkpt lat="48.02428" lon="-4.53452">
        <ele>3</ele>
        <time>2022-06-05T19:04:19.483Z</time>
      </trkpt>
      <trkpt lat="48.02424" lon="-4.53444">
        <ele>3</ele>
        <time>2022-06-05T19:04:24.499Z</time>
      </trkpt>
      <trkpt lat="48.02422" lon="-4.53434">
        <ele>3.7</ele>
        <time>2022-06-05T19:04:29.459Z</time>
      </trkpt>
      <trkpt lat="48.02421" lon="-4.53426">
        <ele>4.3</ele>
        <time>2022-06-05T19:04:33.484Z</time>
      </trkpt>
      <trkpt lat="48.0242" lon="-4.53419">
        <ele>4.8</ele>
        <time>2022-06-05T19:04:37.489Z</time>
      </trkpt>
      <trkpt lat="48.02417" lon="-4.53411">
        <ele>4.8</ele>
        <time>2022-06-05T19:04:41.510Z</time>
      </trkpt>
      <trkpt lat="48.02413" lon="-4.53403">
        <ele>4.3</ele>
        <time>2022-06-05T19:04:46.465Z</time>
      </trkpt>
      <trkpt lat="48.02411" lon="-4.53396">
        <ele>4</ele>
        <time>2022-06-05T19:04:50.467Z</time>
      </trkpt>
      <trkpt lat="48.02408" lon="-4.53387">
        <ele>4.1</ele>
        <time>2022-06-05T19:04:55.494Z</time>
      </trkpt>
      <trkpt lat="48.02408" lon="-4.53377">
        <ele>4.3</ele>
        <time>2022-06-05T19:05:00.477Z</time>
      </trkpt>
      <trkpt lat="48.0241" lon="-4.53367">
        <ele>4.4</ele>
        <time>2022-06-05T19:05:05.513Z</time>
      </trkpt>
      <trkpt lat="48.02414" lon="-4.53359">
        <ele>4.5</ele>
        <time>2022-06-05T19:05:10.489Z</time>
      </trkpt>
      <trkpt lat="48.02418" lon="-4.53351">
        <ele>5.1</ele>
        <time>2022-06-05T19:05:15.456Z</time>
      </trkpt>
      <trkpt lat="48.02421" lon="-4.53344">
        <ele>13</ele>
        <time>2022-06-05T19:05:19.489Z</time>
      </trkpt>
      <trkpt lat="48.02424" lon="-4.53336">
        <ele>13</ele>
        <time>2022-06-05T19:05:24.480Z</time>
      </trkpt>
      <trkpt lat="48.02427" lon="-4.53327">
        <ele>13</ele>
        <time>2022-06-05T19:05:29.477Z</time>
      </trkpt>
      <trkpt lat="48.0243" lon="-4.53319">
        <ele>19</ele>
        <time>2022-06-05T19:05:34.485Z</time>
      </trkpt>
      <trkpt lat="48.02433" lon="-4.5331">
        <ele>12</ele>
        <time>2022-06-05T19:05:39.504Z</time>
      </trkpt>
      <trkpt lat="48.02436" lon="-4.53301">
        <ele>12</ele>
        <time>2022-06-05T19:05:44.468Z</time>
      </trkpt>
      <trkpt lat="48.02439" lon="-4.53294">
        <ele>12</ele>
        <time>2022-06-05T19:05:48.546Z</time>
      </trkpt>
      <trkpt lat="48.02443" lon="-4.53285">
        <ele>15</ele>
        <time>2022-06-05T19:05:53.665Z</time>
      </trkpt>
      <trkpt lat="48.02447" lon="-4.53277">
        <ele>15</ele>
        <time>2022-06-05T19:05:58.485Z</time>
      </trkpt>
      <trkpt lat="48.0245" lon="-4.5327">
        <ele>15</ele>
        <time>2022-06-05T19:06:02.474Z</time>
      </trkpt>
      <trkpt lat="48.02454" lon="-4.53263">
        <ele>20</ele>
        <time>2022-06-05T19:06:07.509Z</time>
      </trkpt>
      <trkpt lat="48.02459" lon="-4.53256">
        <ele>11</ele>
        <time>2022-06-05T19:06:12.493Z</time>
      </trkpt>
      <trkpt lat="48.02463" lon="-4.53249">
        <ele>11</ele>
        <time>2022-06-05T19:06:17.466Z</time>
      </trkpt>
      <trkpt lat="48.02467" lon="-4.53243">
        <ele>11</ele>
        <time>2022-06-05T19:06:21.457Z</time>
      </trkpt>
      <trkpt lat="48.02471" lon="-4.53238">
        <ele>11</ele>
        <time>2022-06-05T19:06:25.487Z</time>
      </trkpt>
      <trkpt lat="48.02475" lon="-4.53231">
        <ele>16</ele>
        <time>2022-06-05T19:06:30.471Z</time>
      </trkpt>
      <trkpt lat="48.0248" lon="-4.53225">
        <ele>16</ele>
        <time>2022-06-05T19:06:34.478Z</time>
      </trkpt>
      <trkpt lat="48.02483" lon="-4.53218">
        <ele>16</ele>
        <time>2022-06-05T19:06:39.484Z</time>
      </trkpt>
      <trkpt lat="48.02488" lon="-4.53212">
        <ele>11</ele>
        <time>2022-06-05T19:06:44.482Z</time>
      </trkpt>
      <trkpt lat="48.02492" lon="-4.53206">
        <ele>17</ele>
        <time>2022-06-05T19:06:49.475Z</time>
      </trkpt>
      <trkpt lat="48.02496" lon="-4.53199">
        <ele>17</ele>
        <time>2022-06-05T19:06:54.480Z</time>
      </trkpt>
      <trkpt lat="48.02498" lon="-4.5319">
        <ele>17</ele>
        <time>2022-06-05T19:06:59.495Z</time>
      </trkpt>
      <trkpt lat="48.02501" lon="-4.53183">
        <ele>17</ele>
        <time>2022-06-05T19:07:03.508Z</time>
      </trkpt>
      <trkpt lat="48.02504" lon="-4.53176">
        <ele>22</ele>
        <time>2022-06-05T19:07:08.483Z</time>
      </trkpt>
      <trkpt lat="48.02507" lon="-4.53171">
        <ele>22</ele>
        <time>2022-06-05T19:07:12.493Z</time>
      </trkpt>
      <trkpt lat="48.0251" lon="-4.53165">
        <ele>22</ele>
        <time>2022-06-05T19:07:16.499Z</time>
      </trkpt>
      <trkpt lat="48.02513" lon="-4.53157">
        <ele>22</ele>
        <time>2022-06-05T19:07:21.477Z</time>
      </trkpt>
      <trkpt lat="48.02515" lon="-4.53149">
        <ele>23</ele>
        <time>2022-06-05T19:07:26.492Z</time>
      </trkpt>
      <trkpt lat="48.02519" lon="-4.53143">
        <ele>23</ele>
        <time>2022-06-05T19:07:30.503Z</time>
      </trkpt>
      <trkpt lat="48.02522" lon="-4.53134">
        <ele>23</ele>
        <time>2022-06-05T19:07:35.685Z</time>
      </trkpt>
      <trkpt lat="48.02524" lon="-4.53125">
        <ele>26</ele>
        <time>2022-06-05T19:07:40.480Z</time>
      </trkpt>
      <trkpt lat="48.02527" lon="-4.53116">
        <ele>26</ele>
        <time>2022-06-05T19:07:45.505Z</time>
      </trkpt>
      <trkpt lat="48.02529" lon="-4.53107">
        <ele>26</ele>
        <time>2022-06-05T19:07:50.483Z</time>
      </trkpt>
      <trkpt lat="48.02529" lon="-4.53099">
        <ele>26</ele>
        <time>2022-06-05T19:07:54.497Z</time>
      </trkpt>
      <trkpt lat="48.02532" lon="-4.5309">
        <ele>28</ele>
        <time>2022-06-05T19:07:59.464Z</time>
      </trkpt>
      <trkpt lat="48.02533" lon="-4.53082">
        <ele>28</ele>
        <time>2022-06-05T19:08:03.497Z</time>
      </trkpt>
      <trkpt lat="48.02534" lon="-4.53078">
        <ele>28</ele>
        <time>2022-06-05T19:08:08.461Z</time>
      </trkpt>
      <trkpt lat="48.02534" lon="-4.53073">
        <ele>28</ele>
        <time>2022-06-05T19:08:12.470Z</time>
      </trkpt>
      <trkpt lat="48.02535" lon="-4.53066">
        <ele>30</ele>
        <time>2022-06-05T19:08:16.495Z</time>
      </trkpt>
      <trkpt lat="48.02536" lon="-4.53056">
        <ele>30</ele>
        <time>2022-06-05T19:08:21.482Z</time>
      </trkpt>
      <trkpt lat="48.02538" lon="-4.53047">
        <ele>30</ele>
        <time>2022-06-05T19:08:26.481Z</time>
      </trkpt>
      <trkpt lat="48.0254" lon="-4.53041">
        <ele>33</ele>
        <time>2022-06-05T19:08:30.490Z</time>
      </trkpt>
      <trkpt lat="48.02542" lon="-4.53034">
        <ele>33</ele>
        <time>2022-06-05T19:08:34.555Z</time>
      </trkpt>
      <trkpt lat="48.02544" lon="-4.53027">
        <ele>28</ele>
        <time>2022-06-05T19:08:39.470Z</time>
      </trkpt>
      <trkpt lat="48.02546" lon="-4.5302">
        <ele>28</ele>
        <time>2022-06-05T19:08:44.477Z</time>
      </trkpt>
      <trkpt lat="48.02547" lon="-4.53013">
        <ele>32</ele>
        <time>2022-06-05T19:08:49.489Z</time>
      </trkpt>
      <trkpt lat="48.02546" lon="-4.53007">
        <ele>32</ele>
        <time>2022-06-05T19:08:53.492Z</time>
      </trkpt>
      <trkpt lat="48.02546" lon="-4.53">
        <ele>32</ele>
        <time>2022-06-05T19:08:58.468Z</time>
      </trkpt>
      <trkpt lat="48.02546" lon="-4.52996">
        <ele>32</ele>
        <time>2022-06-05T19:09:02.473Z</time>
      </trkpt>
      <trkpt lat="48.02546" lon="-4.52989">
        <ele>32</ele>
        <time>2022-06-05T19:09:07.474Z</time>
      </trkpt>
      <trkpt lat="48.02546" lon="-4.52983">
        <ele>35</ele>
        <time>2022-06-05T19:09:12.497Z</time>
      </trkpt>
      <trkpt lat="48.02545" lon="-4.52976">
        <ele>35</ele>
        <time>2022-06-05T19:09:17.484Z</time>
      </trkpt>
      <trkpt lat="48.02544" lon="-4.52968">
        <ele>35</ele>
        <time>2022-06-05T19:09:22.477Z</time>
      </trkpt>
      <trkpt lat="48.02545" lon="-4.52961">
        <ele>35</ele>
        <time>2022-06-05T19:09:27.481Z</time>
      </trkpt>
      <trkpt lat="48.02543" lon="-4.52954">
        <ele>38</ele>
        <time>2022-06-05T19:09:32.492Z</time>
      </trkpt>
      <trkpt lat="48.02541" lon="-4.52948">
        <ele>38</ele>
        <time>2022-06-05T19:09:37.491Z</time>
      </trkpt>
      <trkpt lat="48.0254" lon="-4.52943">
        <ele>38</ele>
        <time>2022-06-05T19:09:41.503Z</time>
      </trkpt>
      <trkpt lat="48.02536" lon="-4.5294">
        <ele>38</ele>
        <time>2022-06-05T19:09:46.480Z</time>
      </trkpt>
      <trkpt lat="48.02534" lon="-4.52936">
        <ele>38</ele>
        <time>2022-06-05T19:09:51.488Z</time>
      </trkpt>
      <trkpt lat="48.02529" lon="-4.52936">
        <ele>38</ele>
        <time>2022-06-05T19:09:56.498Z</time>
      </trkpt>
      <trkpt lat="48.02522" lon="-4.52938">
        <ele>38</ele>
        <time>2022-06-05T19:10:01.474Z</time>
      </trkpt>
      <trkpt lat="48.02517" lon="-4.52937">
        <ele>38</ele>
        <time>2022-06-05T19:10:06.510Z</time>
      </trkpt>
      <trkpt lat="48.02515" lon="-4.52934">
        <ele>38</ele>
        <time>2022-06-05T19:10:11.503Z</time>
      </trkpt>
      <trkpt lat="48.02514" lon="-4.52927">
        <ele>40</ele>
        <time>2022-06-05T19:10:16.481Z</time>
      </trkpt>
      <trkpt lat="48.02512" lon="-4.52922">
        <ele>40</ele>
        <time>2022-06-05T19:10:20.494Z</time>
      </trkpt>
      <trkpt lat="48.0251" lon="-4.52913">
        <ele>40</ele>
        <time>2022-06-05T19:10:25.496Z</time>
      </trkpt>
      <trkpt lat="48.02509" lon="-4.52905">
        <ele>40</ele>
        <time>2022-06-05T19:10:30.470Z</time>
      </trkpt>
      <trkpt lat="48.02508" lon="-4.52898">
        <ele>41</ele>
        <time>2022-06-05T19:10:35.485Z</time>
      </trkpt>
      <trkpt lat="48.02506" lon="-4.52892">
        <ele>41</ele>
        <time>2022-06-05T19:10:40.493Z</time>
      </trkpt>
      <trkpt lat="48.02503" lon="-4.52887">
        <ele>41</ele>
        <time>2022-06-05T19:10:45.494Z</time>
      </trkpt>
      <trkpt lat="48.025" lon="-4.52886">
        <ele>41</ele>
        <time>2022-06-05T19:10:49.495Z</time>
      </trkpt>
      <trkpt lat="48.02497" lon="-4.52885">
        <ele>41</ele>
        <time>2022-06-05T19:10:53.493Z</time>
      </trkpt>
      <trkpt lat="48.02494" lon="-4.5288">
        <ele>41</ele>
        <time>2022-06-05T19:10:58.497Z</time>
      </trkpt>
      <trkpt lat="48.02492" lon="-4.52877">
        <ele>41</ele>
        <time>2022-06-05T19:11:02.490Z</time>
      </trkpt>
      <trkpt lat="48.0249" lon="-4.52872">
        <ele>42</ele>
        <time>2022-06-05T19:11:07.498Z</time>
      </trkpt>
      <trkpt lat="48.0249" lon="-4.52867">
        <ele>42</ele>
        <time>2022-06-05T19:11:12.477Z</time>
      </trkpt>
      <trkpt lat="48.0249" lon="-4.52863">
        <ele>42</ele>
        <time>2022-06-05T19:11:16.487Z</time>
      </trkpt>
      <trkpt lat="48.02489" lon="-4.52862">
        <ele>42</ele>
        <time>2022-06-05T19:11:21.475Z</time>
      </trkpt>
      <trkpt lat="48.0249" lon="-4.5286">
        <ele>42</ele>
        <time>2022-06-05T19:11:25.472Z</time>
      </trkpt>
      <trkpt lat="48.02492" lon="-4.52859">
        <ele>42</ele>
        <time>2022-06-05T19:11:30.489Z</time>
      </trkpt>
      <trkpt lat="48.02492" lon="-4.52849">
        <ele>42</ele>
        <time>2022-06-05T19:11:35.485Z</time>
      </trkpt>
      <trkpt lat="48.02491" lon="-4.52839">
        <ele>43</ele>
        <time>2022-06-05T19:11:40.474Z</time>
      </trkpt>
      <trkpt lat="48.02494" lon="-4.52822">
        <ele>43</ele>
        <time>2022-06-05T19:11:45.442Z</time>
      </trkpt>
      <trkpt lat="48.02498" lon="-4.528">
        <ele>44</ele>
        <time>2022-06-05T19:11:50.442Z</time>
      </trkpt>
      <trkpt lat="48.02503" lon="-4.52778">
        <ele>46</ele>
        <time>2022-06-05T19:11:55.461Z</time>
      </trkpt>
      <trkpt lat="48.02506" lon="-4.52827">
        <ele>43</ele>
        <time>2022-06-05T19:15:48.485Z</time>
      </trkpt>
      <trkpt lat="48.02506" lon="-4.52827">
        <ele>43</ele>
        <time>2022-06-05T19:15:53.494Z</time>
      </trkpt>
      <trkpt lat="48.02505" lon="-4.52827">
        <ele>43</ele>
        <time>2022-06-05T19:15:57.471Z</time>
      </trkpt>
      <trkpt lat="48.02506" lon="-4.52829">
        <ele>43</ele>
        <time>2022-06-05T19:16:02.462Z</time>
      </trkpt>
      <trkpt lat="48.02507" lon="-4.52831">
        <ele>43</ele>
        <time>2022-06-05T19:16:06.466Z</time>
      </trkpt>
      <trkpt lat="48.02501" lon="-4.52827">
        <ele>43</ele>
        <time>2022-06-05T19:16:54.450Z</time>
      </trkpt>
      <trkpt lat="48.02501" lon="-4.52827">
        <ele>43</ele>
        <time>2022-06-05T19:16:58.459Z</time>
      </trkpt>
      <trkpt lat="48.02501" lon="-4.52827">
        <ele>43</ele>
        <time>2022-06-05T19:17:02.461Z</time>
      </trkpt>
      <trkpt lat="48.02499" lon="-4.52827">
        <ele>43</ele>
        <time>2022-06-05T19:17:07.438Z</time>
      </trkpt>
      <trkpt lat="48.02498" lon="-4.52831">
        <ele>43</ele>
        <time>2022-06-05T19:17:12.436Z</time>
      </trkpt>
      <trkpt lat="48.02493" lon="-4.52827">
        <ele>43</ele>
        <time>2022-06-05T19:41:16.460Z</time>
      </trkpt>
      <trkpt lat="48.02492" lon="-4.52829">
        <ele>43</ele>
        <time>2022-06-05T19:41:21.447Z</time>
      </trkpt>
      <trkpt lat="48.02489" lon="-4.52829">
        <ele>43</ele>
        <time>2022-06-05T19:41:25.463Z</time>
      </trkpt>
      <trkpt lat="48.02489" lon="-4.52829">
        <ele>43</ele>
        <time>2022-06-05T19:41:29.479Z</time>
      </trkpt>
      <trkpt lat="48.02488" lon="-4.52828">
        <ele>43</ele>
        <time>2022-06-05T19:41:34.447Z</time>
      </trkpt>
    </trkseg>
  </trk>
</gpx>